John P. Tully — CG2958 — position and weather

sailwx.info

Track history (hours):
 
Tides and Currents Weather Stations Pressure Air Temp Water Temp Dewpoint Dewpoint Depression Visibility Wind Speed Wind Dir Waves Ship Positions

Oceanographic research ship John P. Tully (Canada)

Detailed information on ship capabilities available from University of Delaware's Ocean Information Center.

Last reported at 2017-Apr-25 00:28 UTC. Time now 2017-Apr-25 00:53 UTC.
Position N 48°39' W 123°27'.

Length 68.9 m; beam 14.5 m; draft 4.5 m.

MMSI: 316114000.

Date/timePositionNaut miles runAvg speedWind from/ knotsBaromVisibWave heightAir tempDewpointWater temp
2017-Apr-25 00:28N 48°39' W 123°27'0 0.0
2017-Apr-24 23:58N 48°39' W 123°27'41340.9
2017-Apr-24 23:51N 49°16' W 123°53'41107.7
2017-Apr-24 23:28N 48°39' W 123°27'411618.3
2017-Apr-24 23:27N 49°16' W 123°53'4186.1
2017-Apr-24 22:58N 48°39' W 123°27'0 0.0
2017-Apr-24 22:28N 48°39' W 123°27'1 2.7
2017-Apr-24 22:00N 48°39' W 123°29'57337.3
2017-Apr-24 21:50N 49°31' W 124°06'310.0
2017-Apr-24 21:30N 49°34' W 124°09'6030867.9
2017-Apr-24 21:30N 48°40' W 123°30'0 0.7
2017-Apr-24 21:00N 48°40' W 123°31'66620.1
2017-Apr-24 20:54N 49°39' W 124°15'66167.1
2017-Apr-24 20:30N 48°40' W 123°31'7019311.9
2017-Apr-24 20:30N 49°42' W 124°19'4 8.9
2017-Apr-24 20:00N 49°45' W 124°25'7438198.9
2017-Apr-24 20:00N 48°40' W 123°30'74149.1
2017-Apr-24 19:30N 49°44' W 124°25'7344033.8
2017-Apr-24 19:30N 48°41' W 123°30'74146.9
2017-Apr-24 19:00N 49°45' W 124°25'7553935.2
2017-Apr-24 19:00N 48°39' W 123°30'75151.6
2017-Apr-24 18:30N 49°45' W 124°25'7533738.8
2017-Apr-24 18:30N 48°39' W 123°30'75150.2
2017-Apr-24 18:00N 49°45' W 124°26'761920.2
2017-Apr-24 17:58N 48°39' W 123°27'76165.2
2017-Apr-24 17:30N 49°45' W 124°26'761914.1
2017-Apr-24 17:28N 48°39' W 123°27'76167.2
2017-Apr-24 17:01N 49°45' W 124°27'761738.5
2017-Apr-24 16:58N 48°39' W 123°27'77166.7
2017-Apr-24 16:30N 49°45' W 124°26'77857.2
2017-Apr-24 16:25N 48°39' W 123°27'77187.9
2017-Apr-24 16:00N 49°45' W 124°27'771790.2
2017-Apr-24 15:58N 48°39' W 123°27'76164.8
2017-Apr-24 15:30N 49°45' W 124°27'762065.5
2017-Apr-24 15:28N 48°39' W 123°27'76167.1
2017-Apr-24 15:00N 49°45' W 124°28'761785.8
2017-Apr-24 14:58N 48°39' W 123°27'76167.3
2017-Apr-24 14:30N 49°45' W 124°27'761811.2
2017-Apr-24 14:28N 48°39' W 123°27'7677.7
2017-Apr-24 13:29N 49°46' W 124°23'763034.5
2017-Apr-24 13:28N 48°39' W 123°27'0 0.0
2017-Apr-24 12:55N 48°39' W 123°27'761001.1
2017-Apr-24 12:50N 49°46' W 124°23'76202.9
2017-Apr-24 12:28N 48°39' W 123°27'76997.2
2017-Apr-24 12:23N 49°46' W 124°23'0 0.0
2017-Apr-24 11:59N 49°46' W 124°23'761019.5
2017-Apr-24 11:55N 48°39' W 123°27'76178.3
2017-Apr-24 11:29N 49°46' W 124°23'763140.6
2017-Apr-24 11:28N 48°39' W 123°27'0 0.0
2017-Apr-24 10:58N 48°39' W 123°27'763036.4
2017-Apr-24 10:56N 49°46' W 124°23'0 0.0
2017-Apr-24 10:29N 49°46' W 124°23'763105.2
2017-Apr-24 10:28N 48°39' W 123°27'0 0.0
2017-Apr-24 09:55N 48°39' W 123°27'762970.2
2017-Apr-24 09:53N 49°46' W 124°23'0 0.0
2017-Apr-24 09:29N 49°46' W 124°23'763177.4
2017-Apr-24 09:28N 48°39' W 123°27'76159.5
2017-Apr-24 08:59N 49°46' W 124°23'763140.9
2017-Apr-24 08:58N 48°39' W 123°27'76159.6
2017-Apr-24 08:29N 49°46' W 124°23'763070.1
2017-Apr-24 08:28N 48°39' W 123°27'0 0.0
2017-Apr-24 07:58N 48°39' W 123°27'761004.6
2017-Apr-24 07:53N 49°46' W 124°23'76178.7
2017-Apr-24 07:28N 48°39' W 123°27'763002.6
2017-Apr-24 07:26N 49°46' W 124°23'0 0.0
2017-Apr-24 06:59N 49°46' W 124°23'763105.0
2017-Apr-24 06:58N 48°39' W 123°27'0 0.0
2017-Apr-24 06:28N 48°39' W 123°27'763002.6
2017-Apr-24 06:26N 49°46' W 124°23'76159.9
2017-Apr-24 05:58N 48°39' W 123°27'762970.2
2017-Apr-24 05:56N 49°46' W 124°23'0 0.0
2017-Apr-24 05:29N 49°46' W 124°23'763105.4
2017-Apr-24 05:28N 48°39' W 123°27'0 0.0
2017-Apr-24 04:58N 48°39' W 123°27'76336.5
2017-Apr-24 04:44N 49°46' W 124°23'76276.6
2017-Apr-24 04:28N 48°39' W 123°27'763002.9
2017-Apr-24 04:26N 49°46' W 124°23'76159.9
2017-Apr-24 03:58N 48°39' W 123°27'762938.7
2017-Apr-24 03:56N 49°46' W 124°23'0 0.0
2017-Apr-24 03:29N 49°46' W 124°23'763070.1
2017-Apr-24 03:28N 48°39' W 123°27'76166.3
2017-Apr-24 03:00N 49°45' W 124°26'761777.5
2017-Apr-24 02:58N 48°39' W 123°27'77167.5
2017-Apr-24 02:30N 49°45' W 124°27'771841.9
2017-Apr-24 02:28N 48°39' W 123°27'77168.2
2017-Apr-24 02:00N 49°46' W 124°27'771811.1
2017-Apr-24 01:58N 48°39' W 123°27'77167.5
2017-Apr-24 01:30N 49°45' W 124°28'771842.9
2017-Apr-24 01:28N 48°39' W 123°27'77168.0
2017-Apr-24 01:00N 49°45' W 124°28'771797.5
2017-Apr-24 00:58N 48°39' W 123°27'77168.2
2017-Apr-24 00:30N 49°45' W 124°28'771961.7
2017-Apr-24 00:28N 48°39' W 123°27'77169.4
2017-Apr-24 00:00N 49°46' W 124°28'771835.5
2017-Apr-23 23:58N 48°39' W 123°27'78170.3
2017-Apr-23 23:30N 49°46' W 124°29'781847.6
2017-Apr-23 23:28N 48°39' W 123°27'78170.3
2017-Apr-23 23:00N 49°46' W 124°29'781820.9
2017-Apr-23 22:58N 48°39' W 123°27'78169.6
2017-Apr-23 22:30N 49°45' W 124°29'78835.9
2017-Apr-23 22:25N 48°39' W 123°27'80197.5
2017-Apr-23 22:01N 49°47' W 124°33'801903.7
2017-Apr-23 21:58N 48°39' W 123°27'85184.0
2017-Apr-23 21:30N 49°50' W 124°40'852133.2
2017-Apr-23 21:28N 48°39' W 123°27'89193.7
2017-Apr-23 21:00N 49°51' W 124°48'892072.8
2017-Apr-23 20:58N 48°39' W 123°27'93201.8
2017-Apr-23 20:30N 49°53' W 124°53'932338.0
2017-Apr-23 20:28N 48°39' W 123°27'98212.8
2017-Apr-23 20:00N 49°56' W 125°00'982428.4
2017-Apr-23 19:58N 48°39' W 123°27'101219.7
2017-Apr-23 19:30N 49°58' W 125°03'1012380.8
2017-Apr-23 19:28N 48°39' W 123°27'101220.0
2017-Apr-23 19:00N 49°57' W 125°04'1012352.6
2017-Apr-23 18:58N 48°39' W 123°27'101213.0
2017-Apr-23 18:30N 49°58' W 125°05'1013863.9
2017-Apr-23 18:28N 48°39' W 123°27'101220.4
2017-Apr-23 18:00N 49°58' W 125°05'1012517.3
2017-Apr-23 17:58N 48°39' W 123°27'101219.0
2017-Apr-23 17:30N 49°58' W 125°06'1012786.8
2017-Apr-23 17:28N 48°39' W 123°27'102222.1
2017-Apr-23 17:00N 49°58' W 125°06'1022392.0
2017-Apr-23 16:58N 48°39' W 123°27'102223.9
2017-Apr-23 16:31N 49°59' W 125°05'1022377.3
2017-Apr-23 16:28N 48°39' W 123°27'101220.9
2017-Apr-23 16:00N 49°58' W 125°04'1012361.5
2017-Apr-23 15:58N 48°39' W 123°27'100217.8
2017-Apr-23 15:30N 49°57' W 125°04'1002486.3
2017-Apr-23 15:28N 48°39' W 123°27'100217.9
2017-Apr-23 15:00N 49°57' W 125°03'1002344.6
2017-Apr-23 14:58N 48°39' W 123°27'100103.8
2017-Apr-23 14:00N 49°56' W 125°05'1002769.4
2017-Apr-23 13:58N 48°39' W 123°27'100219.2
2017-Apr-23 13:30N 49°57' W 125°05'1002362.3
2017-Apr-23 13:28N 48°39' W 123°27'101221.2
2017-Apr-23 13:00N 49°57' W 125°06'1011089.6
2017-Apr-23 12:55N 48°39' W 123°27'101246.6
2017-Apr-23 12:30N 49°58' W 125°05'1012510.5
2017-Apr-23 12:28N 48°39' W 123°27'101216.1
2017-Apr-23 12:00N 49°58' W 125°05'1013194.5
2017-Apr-23 11:58N 48°39' W 123°27'101221.4
2017-Apr-23 11:31N 49°58' W 125°04'1012350.1
2017-Apr-23 11:28N 48°39' W 123°27'101220.8
2017-Apr-23 11:00N 49°58' W 125°05'1012482.9
2017-Apr-23 10:58N 48°39' W 123°27'101220.4
2017-Apr-23 10:30N 49°57' W 125°05'1012406.5
2017-Apr-23 10:28N 48°39' W 123°27'101219.9
2017-Apr-23 10:00N 49°57' W 125°05'1012417.4
2017-Apr-23 09:58N 48°39' W 123°27'101220.1
2017-Apr-23 09:30N 49°57' W 125°05'1012368.9
2017-Apr-23 09:28N 48°39' W 123°27'101219.0
2017-Apr-23 09:00N 49°57' W 125°04'1012480.9
2017-Apr-23 08:58N 48°39' W 123°27'101220.0
2017-Apr-23 08:30N 49°57' W 125°05'1012388.4
2017-Apr-23 08:28N 48°39' W 123°27'101222.0
2017-Apr-23 08:01N 49°58' W 125°05'1012369.5
2017-Apr-23 07:58N 48°39' W 123°27'102217.8
2017-Apr-23 07:30N 49°58' W 125°06'1023024.4
2017-Apr-23 07:28N 48°39' W 123°27'101221.9
2017-Apr-23 07:00N 49°58' W 125°06'1012356.6
2017-Apr-23 06:58N 48°39' W 123°27'101214.4
2017-Apr-23 06:30N 49°58' W 125°05'1013759.6
2017-Apr-23 06:28N 48°39' W 123°27'101221.2
2017-Apr-23 06:01N 49°58' W 125°05'1012349.4
2017-Apr-23 05:58N 48°39' W 123°27'101221.1
2017-Apr-23 05:31N 49°58' W 125°05'1012345.5
2017-Apr-23 05:28N 48°39' W 123°27'101220.5
2017-Apr-23 05:01N 49°58' W 125°04'1012356.2
2017-Apr-23 04:58N 48°39' W 123°27'102222.0
2017-Apr-23 04:30N 49°58' W 125°05'1022374.8
2017-Apr-23 04:28N 48°39' W 123°27'104228.3
2017-Apr-23 04:01N 50°01' W 125°06'1042439.1
2017-Apr-23 03:58N 48°39' W 123°27'104227.6
2017-Apr-23 03:31N 50°01' W 125°06'1042432.6
2017-Apr-23 03:28N 48°39' W 123°27'101218.8
2017-Apr-23 03:00N 49°58' W 125°05'1012721.5
2017-Apr-23 02:58N 48°39' W 123°27'102220.1
2017-Apr-23 02:30N 49°58' W 125°07'1022734.3
2017-Apr-23 02:28N 48°39' W 123°27'101219.5
2017-Apr-23 02:00N 49°57' W 125°06'1012543.4
2017-Apr-23 01:58N 48°39' W 123°27'101219.7
2017-Apr-23 01:30N 49°57' W 125°06'1012526.8
2017-Apr-23 01:28N 48°39' W 123°27'101221.1
2017-Apr-23 01:00N 49°58' W 125°05'1012380.4
2017-Apr-23 00:58N 48°39' W 123°27'101211.1
2017-Apr-23 00:29N 49°58' W 125°04'1014924.2
2017-Apr-23 00:28N 48°39' W 123°27'101214.9
2017-Apr-23 00:00N 49°59' W 125°03'1013541.2
2017-Apr-22 23:58N 48°39' W 123°27'102222.9
2017-Apr-22 23:31N 49°59' W 125°05'1022381.9
2017-Apr-22 23:28N 48°39' W 123°27'102220.7
2017-Apr-22 23:00N 49°58' W 125°05'1022538.4
2017-Apr-22 22:58N 48°39' W 123°27'101219.7
2017-Apr-22 22:30N 49°58' W 125°05'1012547.2
2017-Apr-22 22:28N 48°39' W 123°27'101221.4
2017-Apr-22 22:01N 49°58' W 125°05'1012334.2
2017-Apr-22 21:58N 48°39' W 123°27'101218.3
2017-Apr-22 21:30N 49°57' W 125°05'1012712.3
2017-Apr-22 21:28N 48°39' W 123°27'101219.9
2017-Apr-22 21:00N 49°57' W 125°05'1012367.0
2017-Apr-22 20:58N 48°39' W 123°27'100218.7
2017-Apr-22 20:30N 49°56' W 125°05'1002322.4
2017-Apr-22 20:28N 48°39' W 123°27'96206.9
2017-Apr-22 20:00N 49°53' W 125°00'962572.3
2017-Apr-22 19:58N 48°39' W 123°27'90196.4
2017-Apr-22 19:30N 49°50' W 124°54'902240.4
2017-Apr-22 19:28N 48°39' W 123°27'85185.4
2017-Apr-22 19:01N 49°46' W 124°48'851953.5
2017-Apr-22 18:58N 48°39' W 123°27'81175.0
2017-Apr-22 18:30N 49°43' W 124°43'81897.9
2017-Apr-22 18:25N 48°39' W 123°27'79193.8
2017-Apr-22 18:00N 49°42' W 124°42'79880.0
2017-Apr-22 17:55N 48°39' W 123°27'79188.6
2017-Apr-22 17:30N 49°41' W 124°43'792489.3
2017-Apr-22 17:28N 48°39' W 123°27'79172.7
2017-Apr-22 17:00N 49°41' W 124°43'792000.4
2017-Apr-22 16:58N 48°39' W 123°27'80174.2
2017-Apr-22 16:30N 49°42' W 124°44'802003.5
2017-Apr-22 16:28N 48°39' W 123°27'81174.9
2017-Apr-22 16:00N 49°42' W 124°45'812157.0
2017-Apr-22 15:58N 48°39' W 123°27'81176.8
2017-Apr-22 15:30N 49°42' W 124°46'812034.7
2017-Apr-22 15:28N 48°39' W 123°27'82179.3
2017-Apr-22 15:01N 49°43' W 124°46'82877.4
2017-Apr-22 14:55N 48°39' W 123°27'81199.8
2017-Apr-22 14:30N 49°42' W 124°47'811914.1
2017-Apr-22 14:28N 48°39' W 123°27'8184.5
2017-Apr-22 13:30N 49°42' W 124°47'812218.8
2017-Apr-22 13:28N 48°39' W 123°27'81176.4
2017-Apr-22 13:00N 49°42' W 124°45'811886.2
2017-Apr-22 12:58N 48°39' W 123°27'81176.1
2017-Apr-22 12:30N 49°42' W 124°45'811894.6
2017-Apr-22 12:28N 48°39' W 123°27'80174.6
2017-Apr-22 12:00N 49°42' W 124°44'801964.5
2017-Apr-22 11:58N 48°39' W 123°27'80174.3
2017-Apr-22 11:30N 49°42' W 124°43'801903.8
2017-Apr-22 11:28N 48°39' W 123°27'80174.8
2017-Apr-22 11:00N 49°42' W 124°43'802026.0
2017-Apr-22 10:58N 48°39' W 123°27'80175.9
2017-Apr-22 10:30N 49°42' W 124°44'801892.7
2017-Apr-22 10:28N 48°39' W 123°27'80173.6
2017-Apr-22 10:00N 49°42' W 124°44'802159.5
2017-Apr-22 09:58N 48°39' W 123°27'80175.7
2017-Apr-22 09:30N 49°42' W 124°45'801877.9
2017-Apr-22 09:28N 48°39' W 123°27'80175.7
2017-Apr-22 09:00N 49°41' W 124°45'801865.5
2017-Apr-22 08:58N 48°39' W 123°27'80175.8
2017-Apr-22 08:31N 49°41' W 124°46'801876.6
2017-Apr-22 08:28N 48°39' W 123°27'80175.4
2017-Apr-22 08:01N 49°41' W 124°46'801850.9
2017-Apr-22 07:58N 48°39' W 123°27'79170.1
2017-Apr-22 07:30N 49°40' W 124°45'792318.6
2017-Apr-22 07:28N 48°39' W 123°27'80173.1
2017-Apr-22 07:00N 49°41' W 124°45'802004.6
2017-Apr-22 06:58N 48°39' W 123°27'80171.1
2017-Apr-22 06:30N 49°41' W 124°44'802255.9
2017-Apr-22 06:28N 48°39' W 123°27'80174.0
2017-Apr-22 06:00N 49°41' W 124°45'802013.5
2017-Apr-22 05:58N 48°39' W 123°27'80175.0
2017-Apr-22 05:30N 49°41' W 124°45'801911.8
2017-Apr-22 05:28N 48°39' W 123°27'81176.0
2017-Apr-22 05:00N 49°42' W 124°45'81873.5
2017-Apr-22 04:55N 48°39' W 123°27'81198.7
2017-Apr-22 04:31N 49°42' W 124°45'811876.7
2017-Apr-22 04:28N 48°39' W 123°27'81177.4
2017-Apr-22 04:00N 49°43' W 124°45'811897.2
2017-Apr-22 03:58N 48°39' W 123°27'82177.5
2017-Apr-22 03:30N 49°43' W 124°45'822039.8
2017-Apr-22 03:28N 48°39' W 123°27'82178.2
2017-Apr-22 03:00N 49°43' W 124°45'821932.2
2017-Apr-22 02:58N 48°39' W 123°27'81175.5
2017-Apr-22 02:30N 49°42' W 124°44'81897.2
2017-Apr-22 02:25N 48°39' W 123°27'80197.7
2017-Apr-22 02:01N 49°42' W 124°45'801869.7
2017-Apr-22 01:58N 48°39' W 123°27'80172.8
2017-Apr-22 01:30N 49°41' W 124°45'802148.6
2017-Apr-22 01:28N 48°39' W 123°27'80171.0
2017-Apr-22 01:00N 49°41' W 124°45'802311.5
2017-Apr-22 00:58N 48°39' W 123°27'79172.6
2017-Apr-22 00:30N 49°40' W 124°45'791927.0
2017-Apr-22 00:28N 48°39' W 123°27'80169.5
2017-Apr-22 00:00N 49°41' W 124°46'803074.3
2017-Apr-21 23:58N 48°39' W 123°27'80175.6
2017-Apr-21 23:31N 49°41' W 124°45'801865.3
2017-Apr-21 23:28N 48°39' W 123°27'80174.9
2017-Apr-21 23:00N 49°42' W 124°45'801994.8
2017-Apr-21 22:58N 48°39' W 123°27'80170.9
2017-Apr-21 22:30N 49°42' W 124°44'802731.4
2017-Apr-21 22:28N 48°39' W 123°27'81171.9
2017-Apr-21 22:00N 49°42' W 124°43'812542.4
2017-Apr-21 21:58N 48°39' W 123°27'79173.8
2017-Apr-21 21:31N 49°42' W 124°42'791857.3
2017-Apr-21 21:28N 48°39' W 123°27'80173.2
2017-Apr-21 21:00N 49°42' W 124°43'802065.5
2017-Apr-21 20:58N 48°39' W 123°27'80174.8
2017-Apr-21 20:30N 49°42' W 124°44'801885.8
2017-Apr-21 20:28N 48°39' W 123°27'81176.2
2017-Apr-21 20:01N 49°42' W 124°45'811858.4
2017-Apr-21 19:58N 48°39' W 123°27'81175.6
2017-Apr-21 19:30N 49°42' W 124°45'812031.7
2017-Apr-21 19:28N 48°39' W 123°27'81177.2
2017-Apr-21 19:01N 49°42' W 124°46'811894.2
2017-Apr-21 18:58N 48°39' W 123°27'81177.2
2017-Apr-21 18:31N 49°42' W 124°46'811881.3
2017-Apr-21 18:28N 48°39' W 123°27'82178.3
2017-Apr-21 18:00N 49°42' W 124°47'821918.4
2017-Apr-21 17:58N 48°39' W 123°27'81177.7
2017-Apr-21 17:30N 49°42' W 124°46'811927.7
2017-Apr-21 17:28N 48°39' W 123°27'81176.9
2017-Apr-21 17:00N 49°42' W 124°45'811891.1
2017-Apr-21 16:58N 48°39' W 123°27'81176.0
2017-Apr-21 16:30N 49°42' W 124°45'811922.1
2017-Apr-21 16:28N 48°39' W 123°27'80173.2
2017-Apr-21 16:00N 49°42' W 124°44'802152.9
2017-Apr-21 15:58N 48°39' W 123°27'80173.7
2017-Apr-21 15:30N 49°41' W 124°44'801996.4
2017-Apr-21 15:28N 48°39' W 123°27'80174.4
2017-Apr-21 15:00N 49°41' W 124°44'801877.6
2017-Apr-21 14:58N 48°39' W 123°27'79172.7
2017-Apr-21 14:31N 49°41' W 124°43'791834.3
2017-Apr-21 14:28N 48°39' W 123°27'7780.2
2017-Apr-21 13:30N 49°39' W 124°41'771953.4
2017-Apr-21 13:28N 48°39' W 123°27'74159.7
2017-Apr-21 13:00N 49°37' W 124°38'742001.5
2017-Apr-21 12:58N 48°39' W 123°27'71154.1
2017-Apr-21 12:30N 49°35' W 124°35'711772.7
2017-Apr-21 12:28N 48°39' W 123°27'68146.6
2017-Apr-21 12:00N 49°32' W 124°32'681822.2
2017-Apr-21 11:58N 48°39' W 123°27'64131.9
2017-Apr-21 11:29N 49°29' W 124°28'645026.4
2017-Apr-21 11:28N 48°39' W 123°27'61127.2
2017-Apr-21 10:59N 49°27' W 124°24'612633.5
2017-Apr-21 10:58N 48°39' W 123°27'57124.8
2017-Apr-21 10:30N 49°26' W 124°19'571445.2
2017-Apr-21 10:28N 48°39' W 123°27'54116.8
2017-Apr-21 10:00N 49°24' W 124°14'541464.7
2017-Apr-21 09:58N 48°39' W 123°27'51111.1
2017-Apr-21 09:30N 49°22' W 124°09'511195.5
2017-Apr-21 09:28N 48°39' W 123°27'48103.3
2017-Apr-21 09:00N 49°20' W 124°04'481206.4
2017-Apr-21 08:58N 48°39' W 123°27'4496.6
2017-Apr-21 08:30N 49°18' W 123°59'441112.1
2017-Apr-21 08:28N 48°39' W 123°27'4182.9
2017-Apr-21 07:58N 49°16' W 123°54'4111385.0
2017-Apr-21 07:58N 48°39' W 123°27'3883.3
2017-Apr-21 07:30N 49°15' W 123°49'38958.2
2017-Apr-21 07:28N 48°39' W 123°27'3575.2
2017-Apr-21 07:00N 49°13' W 123°44'351227.0
2017-Apr-21 06:58N 48°39' W 123°27'3371.2
2017-Apr-21 06:30N 49°11' W 123°39'33818.7
2017-Apr-21 06:28N 48°39' W 123°27'2959.5
2017-Apr-21 05:58N 49°08' W 123°35'294593.3
2017-Apr-21 05:58N 48°39' W 123°27'2656.4
2017-Apr-21 05:30N 49°05' W 123°32'26648.2
2017-Apr-21 05:28N 48°39' W 123°27'2349.4
2017-Apr-21 05:00N 49°02' W 123°28'23576.9
2017-Apr-21 04:58N 48°39' W 123°27'2043.8
2017-Apr-21 04:30N 48°59' W 123°24'20471.4
2017-Apr-21 04:28N 48°39' W 123°27'1736.7
2017-Apr-21 03:59N 48°56' W 123°21'17767.9
2017-Apr-21 03:58N 48°39' W 123°27'1532.6
2017-Apr-21 03:30N 48°53' W 123°18'15399.0
2017-Apr-21 03:28N 48°39' W 123°27'1123.0
2017-Apr-21 03:00N 48°49' W 123°20'11353.8
2017-Apr-21 02:58N 48°39' W 123°27'613.1
2017-Apr-21 02:30N 48°45' W 123°23'6155.1
2017-Apr-21 02:28N 48°39' W 123°27'3 6.5
2017-Apr-21 02:00N 48°42' W 123°30'376.9
2017-Apr-21 01:58N 48°39' W 123°27'0 0.1
2017-Apr-21 01:30N 48°39' W 123°27'0 1.9
2017-Apr-21 01:28N 48°39' W 123°27'0 0.1
2017-Apr-21 00:59N 48°39' W 123°27'0 0.7
2017-Apr-21 00:55N 48°39' W 123°27'0 0.1
2017-Apr-21 00:29N 48°39' W 123°27'0 2.1
2017-Apr-21 00:28N 48°39' W 123°27'0 0.1
2017-Apr-20 23:59N 48°39' W 123°27'0 2.0
2017-Apr-20 23:58N 48°39' W 123°27'0 0.0
2017-Apr-20 23:28N 48°39' W 123°27'0 2.2
2017-Apr-20 23:26N 48°39' W 123°27'0 0.0
2017-Apr-20 22:59N 48°39' W 123°27'0 2.1
2017-Apr-20 22:58N 48°39' W 123°27'0 0.1
2017-Apr-20 22:30N 48°39' W 123°27'0 2.1
2017-Apr-20 22:28N 48°39' W 123°27'0 0.1
2017-Apr-20 21:59N 48°39' W 123°27'0 2.2
2017-Apr-20 21:58N 48°39' W 123°27'0 0.0
2017-Apr-20 21:28N 48°39' W 123°27'0 2.2
2017-Apr-20 21:26N 48°39' W 123°27'0 0.1
2017-Apr-20 20:58N 48°39' W 123°27'0 2.3
2017-Apr-20 20:57N 48°39' W 123°27'0 0.1
2017-Apr-20 20:28N 48°39' W 123°27'0 2.2
2017-Apr-20 20:27N 48°39' W 123°27'0 0.0
2017-Apr-20 19:59N 48°39' W 123°27'0 2.1
2017-Apr-20 19:58N 48°39' W 123°27'0 0.1
2017-Apr-20 19:29N 48°39' W 123°27'0 2.1
2017-Apr-20 19:28N 48°39' W 123°27'0 0.1
2017-Apr-20 18:59N 48°39' W 123°27'0 2.1
2017-Apr-20 18:58N 48°39' W 123°27'0 0.1
2017-Apr-20 18:29N 48°39' W 123°27'0 2.1
2017-Apr-20 18:28N 48°39' W 123°27'0 0.1
2017-Apr-20 17:59N 48°39' W 123°27'0 2.1
2017-Apr-20 17:58N 48°39' W 123°27'0 0.0
2017-Apr-20 17:28N 48°39' W 123°27'0 2.2
2017-Apr-20 17:27N 48°39' W 123°27'0 0.0
2017-Apr-20 16:59N 48°39' W 123°27'0 2.1
2017-Apr-20 16:58N 48°39' W 123°27'0 0.0
2017-Apr-20 16:28N 48°39' W 123°27'0 2.2
2017-Apr-20 16:26N 48°39' W 123°27'0 0.0
2017-Apr-20 16:00N 48°39' W 123°27'0 2.1
2017-Apr-20 15:58N 48°39' W 123°27'0 0.0
2017-Apr-20 15:30N 48°39' W 123°27'0 3.2
2017-Apr-20 15:29N 48°39' W 123°27'0 0.1
2017-Apr-20 15:00N 48°39' W 123°27'0 3.2
2017-Apr-20 14:59N 48°39' W 123°27'0 0.0
2017-Apr-20 14:29N 48°39' W 123°27'0 0.1
2017-Apr-20 14:00N 48°39' W 123°27'0 0.0
2017-Apr-20 13:31N 48°39' W 123°27'0 3.1
2017-Apr-20 13:29N 48°39' W 123°27'0 0.1
2017-Apr-20 13:01N 48°39' W 123°27'0 3.1
2017-Apr-20 12:59N 48°39' W 123°27'0 0.1
2017-Apr-20 12:31N 48°39' W 123°27'0 3.1
2017-Apr-20 12:29N 48°39' W 123°27'0 0.1
2017-Apr-20 12:01N 48°39' W 123°27'0 3.1
2017-Apr-20 11:59N 48°39' W 123°27'0 0.1
2017-Apr-20 11:31N 48°39' W 123°27'0 3.1
2017-Apr-20 11:29N 48°39' W 123°27'0 0.1
2017-Apr-20 11:01N 48°39' W 123°27'0 0.2
2017-Apr-20 10:47N 48°39' W 123°27'0 0.2
2017-Apr-20 10:31N 48°39' W 123°27'0 3.1
2017-Apr-20 10:29N 48°39' W 123°27'0 0.1
2017-Apr-20 10:00N 48°39' W 123°27'0 3.2
2017-Apr-20 09:59N 48°39' W 123°27'0 0.1
2017-Apr-20 09:30N 48°39' W 123°27'0 3.3
2017-Apr-20 09:30N 48°39' W 123°27'0 0.1
2017-Apr-20 09:00N 48°39' W 123°27'0 3.2
2017-Apr-20 08:59N 48°39' W 123°27'0 0.1
2017-Apr-20 08:30N 48°39' W 123°27'0 3.2
2017-Apr-20 08:29N 48°39' W 123°27'0 0.1
2017-Apr-20 08:00N 48°39' W 123°27'0 3.3
2017-Apr-20 08:00N 48°39' W 123°27'0 0.1
2017-Apr-20 07:31N 48°39' W 123°27'0 0.8
2017-Apr-20 07:26N 48°39' W 123°27'0 0.1
2017-Apr-20 07:01N 48°39' W 123°27'0 3.1
2017-Apr-20 06:59N 48°39' W 123°27'0 0.1
2017-Apr-20 06:31N 48°39' W 123°27'0 3.1
2017-Apr-20 06:29N 48°39' W 123°27'0 0.1
2017-Apr-20 06:00N 48°39' W 123°27'0 3.3
2017-Apr-20 06:00N 48°39' W 123°27'0 0.0
2017-Apr-20 05:30N 48°39' W 123°27'0 1.6
2017-Apr-20 05:28N 48°39' W 123°27'0 0.0
2017-Apr-20 05:00N 48°39' W 123°27'0 3.2
2017-Apr-20 04:59N 48°39' W 123°27'0 0.0
2017-Apr-20 04:29N 48°39' W 123°27'0 2.8
2017-Apr-20 04:27N 48°39' W 123°27'0 0.0
2017-Apr-20 04:01N 48°39' W 123°27'22227.7
2017-Apr-20 04:00N 48°40' W 123°30'2 3.7
2017-Apr-20 03:30N 48°39' W 123°27'58930.1
2017-Apr-20 03:30N 48°44' W 123°25'5 9.9
2017-Apr-20 03:01N 48°39' W 123°27'102563.1
2017-Apr-20 03:00N 48°48' W 123°21'1020.1
2017-Apr-20 02:31N 48°39' W 123°27'131929.0
2017-Apr-20 02:30N 48°52' W 123°19'1327.1
2017-Apr-20 02:00N 48°39' W 123°27'172799.7
2017-Apr-20 02:00N 48°56' W 123°20'1734.6
2017-Apr-20 01:30N 48°39' W 123°27'2124737.3
2017-Apr-20 01:30N 48°60' W 123°25'2141.3
2017-Apr-20 01:01N 48°39' W 123°27'253584.4
2017-Apr-20 01:00N 49°04' W 123°30'2550.4
2017-Apr-20 00:30N 48°39' W 123°27'30800.3
2017-Apr-20 00:28N 49°08' W 123°36'3063.9
2017-Apr-20 00:01N 48°39' W 123°27'338035.7
2017-Apr-20 00:00N 49°11' W 123°42'510.5
2017-Apr-19 23:30N 49°14' W 123°49'37805.9
2017-Apr-19 23:27N 48°39' W 123°27'0 0.0
2017-Apr-19 23:01N 48°39' W 123°27'4110631.7
2017-Apr-19 23:00N 49°16' W 123°56'4183.2
2017-Apr-19 22:30N 48°39' W 123°27'4613685.9
2017-Apr-19 22:30N 49°18' W 124°03'4692.0
2017-Apr-19 22:01N 48°39' W 123°27'5012763.5
2017-Apr-19 22:00N 49°20' W 124°10'5099.9
2017-Apr-19 21:30N 48°39' W 123°27'541480.3
2017-Apr-19 21:28N 49°22' W 124°18'54117.3
2017-Apr-19 21:01N 48°39' W 123°27'59835.6
2017-Apr-19 20:56N 49°24' W 124°26'59137.9
2017-Apr-19 20:31N 48°39' W 123°27'633043.2
2017-Apr-19 20:29N 49°26' W 124°33'63132.2
2017-Apr-19 20:00N 48°39' W 123°27'6811136.3
2017-Apr-19 20:00N 49°28' W 124°40'68138.0
2017-Apr-19 19:31N 48°39' W 123°27'7220053.5
2017-Apr-19 19:30N 49°30' W 124°46'72145.9
2017-Apr-19 19:01N 48°39' W 123°27'7265133.7
2017-Apr-19 19:00N 49°30' W 124°46'72145.1
2017-Apr-19 18:31N 48°39' W 123°27'723063.9
2017-Apr-19 18:29N 49°30' W 124°46'72151.9
2017-Apr-19 18:01N 48°39' W 123°27'7210869.3
2017-Apr-19 18:00N 49°30' W 124°46'72146.9
2017-Apr-19 17:31N 48°39' W 123°27'724004.2
2017-Apr-19 17:29N 49°30' W 124°46'72150.0
2017-Apr-19 17:01N 48°39' W 123°27'722740.8
2017-Apr-19 16:59N 49°30' W 124°46'3 6.0
2017-Apr-19 16:30N 49°28' W 124°42'70477.1
2017-Apr-19 16:22N 48°39' W 123°27'0 0.0
2017-Apr-19 16:00N 48°39' W 123°27'6920813.7
2017-Apr-19 16:00N 49°29' W 124°41'69139.7
2017-Apr-19 15:30N 48°39' W 123°27'71127300.9
2017-Apr-19 15:30N 49°30' W 124°42'71141.6
2017-Apr-19 15:00N 48°39' W 123°27'71800.0
2017-Apr-19 14:55N 49°31' W 124°43'71173.6
2017-Apr-19 14:30N 48°39' W 123°27'733153.5
2017-Apr-19 14:29N 49°32' W 124°44'1 1.1
2017-Apr-19 13:30N 49°31' W 124°44'72719.7
2017-Apr-19 13:24N 48°39' W 123°27'74184.1
2017-Apr-19 13:00N 49°34' W 124°43'741547.7
2017-Apr-19 12:58N 48°39' W 123°27'0 0.0
2017-Apr-19 12:30N 48°39' W 123°27'724973.1
2017-Apr-19 12:30N 49°31' W 124°44'72148.0
2017-Apr-19 12:00N 48°39' W 123°27'7422121.2
2017-Apr-19 12:00N 49°33' W 124°44'74148.5
2017-Apr-19 11:31N 48°39' W 123°27'727889.2
2017-Apr-19 11:30N 49°31' W 124°44'72147.2
2017-Apr-19 11:00N 48°39' W 123°27'7424084.7
2017-Apr-19 11:00N 49°33' W 124°44'1 2.3
2017-Apr-19 10:30N 49°32' W 124°44'731804.5
2017-Apr-19 10:28N 48°39' W 123°27'0 0.0
2017-Apr-19 10:00N 48°39' W 123°27'71127105.3
2017-Apr-19 10:00N 49°30' W 124°42'71141.4
2017-Apr-19 09:30N 48°39' W 123°27'707831.1
2017-Apr-19 09:30N 49°29' W 124°41'70141.7
2017-Apr-19 09:00N 48°39' W 123°27'683374.9
2017-Apr-19 08:59N 49°29' W 124°40'68142.7
2017-Apr-19 08:30N 48°39' W 123°27'697756.8
2017-Apr-19 08:30N 49°29' W 124°40'69140.4
2017-Apr-19 08:00N 48°39' W 123°27'7221712.0
2017-Apr-19 08:00N 49°32' W 124°43'72145.9
2017-Apr-19 07:31N 48°39' W 123°27'7410588.6
2017-Apr-19 07:30N 49°33' W 124°44'74149.0
2017-Apr-19 07:00N 48°39' W 123°27'723559.6
2017-Apr-19 06:59N 49°31' W 124°43'72150.5
2017-Apr-19 06:30N 48°39' W 123°27'7322048.9
2017-Apr-19 06:30N 49°33' W 124°43'73148.0
2017-Apr-19 06:00N 48°39' W 123°27'7311420.4
2017-Apr-19 06:00N 49°32' W 124°44'73148.0
2017-Apr-19 05:31N 48°39' W 123°27'7365521.6
2017-Apr-19 05:30N 49°32' W 124°44'73145.9
2017-Apr-19 05:01N 48°39' W 123°27'7387956.5
2017-Apr-19 05:00N 49°33' W 124°44'73146.8
2017-Apr-19 04:31N 48°39' W 123°27'7251576.8
2017-Apr-19 04:30N 49°31' W 124°43'72143.5
2017-Apr-19 04:00N 48°39' W 123°27'7522383.9
2017-Apr-19 04:00N 49°34' W 124°45'75150.4
2017-Apr-19 03:31N 48°39' W 123°27'7818762.4
2017-Apr-19 03:30N 49°37' W 124°48'78157.7
2017-Apr-19 03:01N 48°39' W 123°27'7618205.5
2017-Apr-19 03:00N 49°35' W 124°46'76152.9
2017-Apr-19 02:30N 48°39' W 123°27'7215339.5
2017-Apr-19 02:30N 49°32' W 124°43'72146.3
2017-Apr-19 02:01N 48°39' W 123°27'6922499.8
2017-Apr-19 02:00N 49°29' W 124°40'69138.2
2017-Apr-19 01:30N 48°39' W 123°27'688752.0
2017-Apr-19 01:30N 49°28' W 124°39'68138.4
2017-Apr-19 01:00N 48°39' W 123°27'6814404.8
2017-Apr-19 01:00N 49°28' W 124°39'0 0.1
2017-Apr-19 00:31N 49°28' W 124°39'6881670.4
2017-Apr-19 00:30N 48°39' W 123°27'0 0.0
2017-Apr-19 00:01N 48°39' W 123°27'727416.7
2017-Apr-19 00:00N 49°29' W 124°46'72147.1
2017-Apr-18 23:31N 48°39' W 123°27'0 0.0
2017-Apr-18 23:00N 48°39' W 123°27'74161.2
2017-Apr-18 22:33N 49°31' W 124°49'741954.6
2017-Apr-18 22:31N 48°39' W 123°27'741195.4
2017-Apr-18 22:27N 49°31' W 124°49'74169.7
2017-Apr-18 22:00N 48°39' W 123°27'74351.4
2017-Apr-18 21:48N 49°31' W 124°49'74258.0
2017-Apr-18 21:30N 48°39' W 123°27'742651.4
2017-Apr-18 21:29N 49°31' W 124°49'74157.8
2017-Apr-18 21:01N 48°39' W 123°27'7589795.9
2017-Apr-18 21:00N 49°31' W 124°49'75149.7
2017-Apr-18 20:30N 48°39' W 123°27'74267897.1
2017-Apr-18 20:30N 49°31' W 124°49'74148.9
2017-Apr-18 20:00N 48°39' W 123°27'75269450.1
2017-Apr-18 20:00N 49°31' W 124°49'75149.8
2017-Apr-18 19:30N 48°39' W 123°27'774568.9
2017-Apr-18 19:29N 49°34' W 124°51'0 0.2
2017-Apr-18 18:59N 49°34' W 124°51'773360.8
2017-Apr-18 18:58N 48°39' W 123°27'0 0.0
2017-Apr-18 18:30N 48°39' W 123°27'775447.8
2017-Apr-18 18:30N 49°33' W 124°51'77158.9
2017-Apr-18 18:00N 48°39' W 123°27'791408.7
2017-Apr-18 17:57N 49°35' W 124°52'79178.0
2017-Apr-18 17:30N 48°39' W 123°27'82294957.8
2017-Apr-18 17:30N 49°38' W 124°54'82164.0
2017-Apr-18 17:00N 48°39' W 123°27'7923796.3
2017-Apr-18 17:00N 49°36' W 124°52'2 3.9
2017-Apr-18 16:30N 49°34' W 124°52'781763.9
2017-Apr-18 16:27N 48°39' W 123°27'0 0.0
2017-Apr-18 16:00N 48°39' W 123°27'7612456.0
2017-Apr-18 16:00N 49°32' W 124°51'76140.0
2017-Apr-18 15:27N 48°39' W 123°27'743739.4
2017-Apr-18 15:26N 49°31' W 124°48'74171.6
2017-Apr-18 15:01N 48°39' W 123°27'7118277.8
2017-Apr-18 15:00N 49°29' W 124°45'71143.1
2017-Apr-18 14:30N 48°39' W 123°27'6920764.4
2017-Apr-18 14:30N 49°28' W 124°42'6969.5
2017-Apr-18 13:31N 48°39' W 123°27'6810203.5
2017-Apr-18 13:30N 49°28' W 124°39'68137.9
2017-Apr-18 13:01N 48°39' W 123°27'6817358.2
2017-Apr-18 13:00N 49°27' W 124°39'68136.1
2017-Apr-18 12:31N 48°39' W 123°27'712254.0
2017-Apr-18 12:29N 49°30' W 124°42'71150.8
2017-Apr-18 12:00N 48°39' W 123°27'7031489.4
2017-Apr-18 12:00N 49°30' W 124°41'674800.8
2017-Apr-18 12:00N 48°42' W 123°30'3 6.9 1011.7 8.3 7.9
2017-Apr-18 11:30N 48°39' W 123°27'6820433.9
2017-Apr-18 11:30N 49°28' W 124°40'68137.2
2017-Apr-18 11:00N 48°39' W 123°27'717336.3
2017-Apr-18 11:00N 49°30' W 124°43'71145.4
2017-Apr-18 10:30N 48°39' W 123°27'697785.0
2017-Apr-18 10:30N 49°29' W 124°41'69141.1
2017-Apr-18 10:01N 48°39' W 123°27'6817592.6
2017-Apr-18 10:00N 49°28' W 124°41'68137.7
2017-Apr-18 09:30N 48°39' W 123°27'6816256.0
2017-Apr-18 09:30N 49°27' W 124°40'68136.6
2017-Apr-18 09:00N 48°39' W 123°27'68122188.8
2017-Apr-18 09:00N 49°27' W 124°40'68136.1
2017-Apr-18 08:31N 48°39' W 123°27'682596.3
2017-Apr-18 08:29N 49°27' W 124°40'68143.1
2017-Apr-18 08:01N 48°39' W 123°27'6911776.9
2017-Apr-18 08:00N 49°28' W 124°41'69138.9
2017-Apr-18 07:30N 48°39' W 123°27'6922496.5
2017-Apr-18 07:30N 49°28' W 124°41'69138.3
2017-Apr-18 07:00N 48°39' W 123°27'6920550.7
2017-Apr-18 07:00N 49°28' W 124°41'69138.1
2017-Apr-18 06:31N 48°39' W 123°27'689074.9
2017-Apr-18 06:30N 49°27' W 124°41'68138.0
2017-Apr-18 06:00N 48°39' W 123°27'3207.9
2017-Apr-18 06:00N 48°42' W 123°30'647729.1 120 / 21011.2 9.7 9.1
2017-Apr-18 05:59N 49°27' W 124°40'0 0.2
2017-Apr-18 05:30N 49°27' W 124°40'68678.0
2017-Apr-18 05:24N 48°39' W 123°27'70168.7
2017-Apr-18 04:59N 49°30' W 124°42'702127.8
2017-Apr-18 04:57N 48°39' W 123°27'0 0.0
2017-Apr-18 04:31N 48°39' W 123°27'714825.5
2017-Apr-18 04:30N 49°30' W 124°42'71146.4
2017-Apr-18 04:01N 48°39' W 123°27'681550.2
2017-Apr-18 03:58N 49°28' W 124°39'68148.0
2017-Apr-18 03:30N 48°39' W 123°27'70125297.7
2017-Apr-18 03:30N 49°28' W 124°42'70139.5
2017-Apr-18 03:01N 48°39' W 123°27'7083776.4
2017-Apr-18 03:00N 49°28' W 124°43'70139.9
2017-Apr-18 02:31N 48°39' W 123°27'6861243.9
2017-Apr-18 02:30N 49°28' W 124°39'68136.4
2017-Apr-18 02:01N 48°39' W 123°27'684538.3
2017-Apr-18 02:00N 49°28' W 124°40'68140.4
2017-Apr-18 01:31N 48°39' W 123°27'68447.4
2017-Apr-18 01:21N 49°28' W 124°40'68195.8
2017-Apr-18 01:01N 48°39' W 123°27'6830647.9
2017-Apr-18 01:00N 49°28' W 124°40'68136.8
2017-Apr-18 00:31N 48°39' W 123°27'6827244.3
2017-Apr-18 00:30N 49°28' W 124°40'0 0.0
2017-Apr-18 00:00N 49°28' W 124°40'654575.7
2017-Apr-18 00:00N 48°42' W 123°30'3100.5 310 / 51010.1 11.5 9.0
2017-Apr-17 23:58N 48°39' W 123°27'0 0.0
2017-Apr-17 23:31N 48°39' W 123°27'68225.3
2017-Apr-17 23:12N 49°28' W 124°40'68344.3
2017-Apr-17 23:01N 48°39' W 123°27'68270.0
2017-Apr-17 22:45N 49°28' W 124°40'68274.9
2017-Apr-17 22:31N 48°39' W 123°27'6830646.0
2017-Apr-17 22:30N 49°28' W 124°40'68136.8
2017-Apr-17 22:01N 48°39' W 123°27'0 0.0
2017-Apr-17 21:31N 48°39' W 123°27'68270.2
2017-Apr-17 21:15N 49°28' W 124°40'68273.8
2017-Apr-17 21:00N 48°39' W 123°27'6840837.1
2017-Apr-17 21:00N 49°28' W 124°40'68136.6
2017-Apr-17 20:30N 48°39' W 123°27'6849004.5
2017-Apr-17 20:30N 49°28' W 124°40'68136.5
2017-Apr-17 20:00N 48°39' W 123°27'0 0.0
2017-Apr-17 19:30N 48°39' W 123°27'681324.6
2017-Apr-17 19:27N 49°28' W 124°40'68151.8
2017-Apr-17 19:00N 48°39' W 123°27'68169.4
2017-Apr-17 18:36N 49°28' W 124°40'68694.4
2017-Apr-17 18:30N 48°39' W 123°27'6835017.4
2017-Apr-17 18:30N 49°28' W 124°40'68136.7
2017-Apr-17 18:00N 48°39' W 123°27'3204.4
2017-Apr-17 18:00N 48°42' W 123°30'65193.1 100 / 61011.2 11.2 6.1
2017-Apr-17 17:39N 49°28' W 124°40'68460.8
2017-Apr-17 17:31N 48°39' W 123°27'681310.8
2017-Apr-17 17:27N 49°28' W 124°40'68151.8
2017-Apr-17 17:00N 48°39' W 123°27'0 0.0
2017-Apr-17 16:30N 48°39' W 123°27'68444.7
2017-Apr-17 16:21N 49°28' W 124°40'1 4.1
2017-Apr-17 16:00N 49°28' W 124°42'691394.7
2017-Apr-17 15:57N 48°39' W 123°27'0 0.0
2017-Apr-17 15:30N 48°39' W 123°27'7083775.1
2017-Apr-17 15:30N 49°29' W 124°43'0 0.3
2017-Apr-17 15:01N 49°28' W 124°43'701428.0
2017-Apr-17 14:58N 48°39' W 123°27'0 0.0
2017-Apr-17 14:31N 48°39' W 123°27'71136.8
2017-Apr-17 13:59N 49°29' W 124°45'71146.7
2017-Apr-17 13:31N 48°39' W 123°27'71127226.4
2017-Apr-17 13:30N 49°29' W 124°44'1 2.3
2017-Apr-17 13:01N 49°29' W 124°43'7041895.1
2017-Apr-17 13:00N 48°39' W 123°27'0 0.0
2017-Apr-17 12:31N 48°39' W 123°27'7264850.1
2017-Apr-17 12:30N 49°29' W 124°46'72144.4
2017-Apr-17 12:01N 48°39' W 123°27'3201.0
2017-Apr-17 12:00N 48°42' W 123°30'697477.9 310 / 41009.0 10.3 5.9
2017-Apr-17 11:59N 49°29' W 124°46'72151.3
2017-Apr-17 11:30N 48°39' W 123°27'723590.4
2017-Apr-17 11:29N 49°29' W 124°46'72149.8
2017-Apr-17 11:01N 48°39' W 123°27'7251501.9
2017-Apr-17 11:00N 49°29' W 124°46'72143.3
2017-Apr-17 10:30N 48°39' W 123°27'71126911.5
2017-Apr-17 10:30N 49°28' W 124°44'71141.2
2017-Apr-17 10:00N 48°39' W 123°27'742954.0
2017-Apr-17 09:59N 49°31' W 124°48'74155.7
2017-Apr-17 09:31N 48°39' W 123°27'73131109.5
2017-Apr-17 09:30N 49°30' W 124°47'73145.8
2017-Apr-17 09:01N 48°39' W 123°27'763332.0
2017-Apr-17 08:59N 49°32' W 124°50'76159.0
2017-Apr-17 08:31N 48°39' W 123°27'777070.5
2017-Apr-17 08:30N 49°33' W 124°51'77156.6
2017-Apr-17 08:01N 48°39' W 123°27'7711593.4
2017-Apr-17 08:00N 49°33' W 124°51'77156.5
2017-Apr-17 07:30N 48°39' W 123°27'746333.5
2017-Apr-17 07:30N 49°31' W 124°48'74151.3
2017-Apr-17 07:00N 48°39' W 123°27'7125507.9
2017-Apr-17 07:00N 49°28' W 124°45'71142.5
2017-Apr-17 06:30N 48°39' W 123°27'7337369.3
2017-Apr-17 06:30N 49°30' W 124°47'73145.9
2017-Apr-17 06:00N 48°39' W 123°27'70253120.1
2017-Apr-17 06:00N 49°28' W 124°45'674233.9
2017-Apr-17 06:00N 48°42' W 123°30'67138.5 310 / 31009.4 12.0 5.3
2017-Apr-17 05:30N 49°29' W 124°44'701440.9
2017-Apr-17 05:27N 48°39' W 123°27'0 0.0
2017-Apr-17 05:01N 48°39' W 123°27'7050752.0
2017-Apr-17 05:00N 49°28' W 124°44'70141.2
2017-Apr-17 04:30N 48°39' W 123°27'71257090.8
2017-Apr-17 04:30N 49°29' W 124°45'71129.9
2017-Apr-17 03:57N 48°39' W 123°27'6911352.4
2017-Apr-17 03:57N 49°28' W 124°42'69156.5
2017-Apr-17 03:31N 48°39' W 123°27'7084499.2
2017-Apr-17 03:30N 49°28' W 124°44'1 1.5
2017-Apr-17 03:00N 49°28' W 124°45'71141.7
2017-Apr-17 02:31N 48°39' W 123°27'7151207.7
2017-Apr-17 02:30N 49°29' W 124°45'1 1.5
2017-Apr-17 02:00N 49°29' W 124°46'72258604.5
2017-Apr-17 02:00N 48°39' W 123°27'0 0.0
2017-Apr-17 01:31N 48°39' W 123°27'72876.9
2017-Apr-17 01:26N 49°29' W 124°46'72171.9
2017-Apr-17 01:01N 48°39' W 123°27'72873.9
2017-Apr-17 00:56N 49°29' W 124°46'72171.8
2017-Apr-17 00:30N 48°39' W 123°27'0 0.0
2017-Apr-17 00:00N 48°39' W 123°27'3207.9
2017-Apr-17 00:00N 48°42' W 123°30'69187.6 250 / 21010.6 14.7 3.8
2017-Apr-16 23:38N 49°29' W 124°46'72607.2
2017-Apr-16 23:30N 48°39' W 123°27'72216.8
2017-Apr-16 23:11N 49°29' W 124°46'72427.6
2017-Apr-16 23:01N 48°39' W 123°27'72544.6
2017-Apr-16 22:53N 49°29' W 124°46'72194.9
2017-Apr-16 22:30N 48°39' W 123°27'72310.9
2017-Apr-16 22:17N 49°29' W 124°46'72267.8
2017-Apr-16 22:01N 48°39' W 123°27'0 0.0
2017-Apr-16 21:25N 48°39' W 123°27'0 0.0
2017-Apr-16 20:57N 48°39' W 123°27'72310.6
2017-Apr-16 20:44N 49°29' W 124°46'72268.1
2017-Apr-16 20:28N 48°39' W 123°27'72544.7
2017-Apr-16 20:20N 49°29' W 124°46'0 0.0
2017-Apr-16 19:59N 49°29' W 124°46'723981.0
2017-Apr-16 19:58N 48°39' W 123°27'0 0.0
2017-Apr-16 19:30N 48°39' W 123°27'722269.9
2017-Apr-16 19:29N 49°29' W 124°46'72153.4
2017-Apr-16 19:00N 48°39' W 123°27'722290.0
2017-Apr-16 18:59N 49°29' W 124°46'72153.6
2017-Apr-16 18:31N 48°39' W 123°27'722250.2
2017-Apr-16 18:29N 49°29' W 124°46'72153.4
2017-Apr-16 18:00N 48°39' W 123°27'3207.9
2017-Apr-16 18:00N 48°42' W 123°30'691051.0 050 / 51016.4 9.9 4.1
2017-Apr-16 17:56N 49°29' W 124°46'72171.9
2017-Apr-16 17:31N 48°39' W 123°27'722250.2
2017-Apr-16 17:29N 49°29' W 124°46'72153.6
2017-Apr-16 17:01N 48°39' W 123°27'72874.2
2017-Apr-16 16:56N 49°29' W 124°46'72171.8
2017-Apr-16 16:30N 48°39' W 123°27'72880.2
2017-Apr-16 16:26N 49°29' W 124°46'0 0.0
2017-Apr-16 15:59N 49°29' W 124°46'723805.4
2017-Apr-16 15:57N 48°39' W 123°27'0 0.0
2017-Apr-16 15:31N 48°39' W 123°27'722875.2
2017-Apr-16 15:29N 49°29' W 124°46'72151.2
2017-Apr-16 15:00N 48°39' W 123°27'735612.7
2017-Apr-16 15:00N 49°31' W 124°47'73150.6
2017-Apr-16 14:31N 48°39' W 123°27'79157.5
2017-Apr-16 14:01N 49°35' W 124°52'79157.2
2017-Apr-16 13:30N 48°39' W 123°27'7917729.0
2017-Apr-16 13:30N 49°35' W 124°52'0 0.3
2017-Apr-16 13:01N 49°35' W 124°52'79142054.0
2017-Apr-16 13:01N 48°39' W 123°27'0 0.0
2017-Apr-16 12:30N 48°39' W 123°27'781431.3
2017-Apr-16 12:27N 49°34' W 124°52'78175.9
2017-Apr-16 12:00N 48°39' W 123°27'7935500.7
2017-Apr-16 12:00N 49°35' W 124°52'765443.2
2017-Apr-16 12:00N 48°42' W 123°30'76156.9 310 / 61020.1 6.0 4.4
2017-Apr-16 11:31N 49°35' W 124°52'7994909.1
2017-Apr-16 11:30N 48°39' W 123°27'0 0.0
2017-Apr-16 11:00N 48°39' W 123°27'763524.6
2017-Apr-16 10:59N 49°32' W 124°51'76159.7
2017-Apr-16 10:30N 48°39' W 123°27'7840120.4
2017-Apr-16 10:30N 49°34' W 124°52'0 0.5
2017-Apr-16 10:01N 49°34' W 124°52'7893328.3
2017-Apr-16 10:00N 48°39' W 123°27'0 0.0
2017-Apr-16 09:30N 48°39' W 123°27'741290.7
2017-Apr-16 09:27N 49°31' W 124°48'74167.7
2017-Apr-16 09:00N 48°39' W 123°27'7316419.2
2017-Apr-16 09:00N 49°30' W 124°47'73147.3
2017-Apr-16 08:30N 48°39' W 123°27'7634378.6
2017-Apr-16 08:30N 49°32' W 124°51'76153.6
2017-Apr-16 08:01N 48°39' W 123°27'79142588.9
2017-Apr-16 08:00N 49°35' W 124°53'3 7.0
2017-Apr-16 07:31N 49°32' W 124°51'7691345.6
2017-Apr-16 07:30N 48°39' W 123°27'0 0.0
2017-Apr-16 07:00N 48°39' W 123°27'721322.9
2017-Apr-16 06:57N 49°30' W 124°47'72162.6
2017-Apr-16 06:30N 48°39' W 123°27'7515056.8
2017-Apr-16 06:30N 49°32' W 124°50'75152.1
2017-Apr-16 06:00N 48°39' W 123°27'7816599.0
2017-Apr-16 06:00N 49°34' W 124°52'756594.1
2017-Apr-16 06:00N 48°42' W 123°30'75154.5 230 / 41022.8 7.3 5.4
2017-Apr-16 05:31N 49°34' W 124°52'78140332.5
2017-Apr-16 05:30N 48°39' W 123°27'0 0.0
2017-Apr-16 05:00N 48°39' W 123°27'741229.3
2017-Apr-16 04:57N 49°31' W 124°48'74168.7
2017-Apr-16 04:31N 48°39' W 123°27'7142683.3
2017-Apr-16 04:30N 49°28' W 124°46'71142.8
2017-Apr-16 04:01N 48°39' W 123°27'746822.9
2017-Apr-16 04:00N 49°31' W 124°48'74150.9
2017-Apr-16 03:30N 48°39' W 123°27'772847.3
2017-Apr-16 03:29N 49°33' W 124°51'3 6.2
2017-Apr-16 03:01N 49°35' W 124°53'79142646.3
2017-Apr-16 03:00N 48°39' W 123°27'0 0.0
2017-Apr-16 02:31N 48°39' W 123°27'792321.0
2017-Apr-16 02:28N 49°35' W 124°52'79168.6
2017-Apr-16 02:00N 48°39' W 123°27'82269.8
2017-Apr-16 01:42N 49°38' W 124°54'82417.2
2017-Apr-16 01:30N 48°39' W 123°27'82231.9
2017-Apr-16 01:09N 49°38' W 124°54'82560.7
2017-Apr-16 01:01N 48°39' W 123°27'0 0.0
2017-Apr-16 00:30N 48°39' W 123°27'0 0.0
2017-Apr-16 00:00N 48°39' W 123°27'3204.4
2017-Apr-16 00:00N 48°42' W 123°30'79901.3 130 / 81024.4 10.9 2.5
2017-Apr-15 23:54N 49°38' W 124°54'82206.5
2017-Apr-15 23:30N 48°39' W 123°27'8221062.9
2017-Apr-15 23:30N 49°38' W 124°54'82165.1
2017-Apr-15 23:00N 48°39' W 123°27'82788.5
2017-Apr-15 22:54N 49°38' W 124°54'82206.8
2017-Apr-15 22:30N 48°39' W 123°27'82533.3
2017-Apr-15 22:21N 49°38' W 124°54'82236.9
2017-Apr-15 22:01N 48°39' W 123°27'821520.0
2017-Apr-15 21:57N 49°38' W 124°54'82183.6
2017-Apr-15 21:31N 48°39' W 123°27'8221062.9
2017-Apr-15 21:30N 49°38' W 124°54'82165.1
2017-Apr-15 21:01N 48°39' W 123°27'8221064.0
2017-Apr-15 21:00N 49°38' W 124°54'82164.9
2017-Apr-15 20:30N 48°39' W 123°27'8224574.7
2017-Apr-15 20:30N 49°38' W 124°54'82165.1
2017-Apr-15 20:01N 48°39' W 123°27'82532.3
2017-Apr-15 19:51N 49°38' W 124°54'82236.5
2017-Apr-15 19:30N 48°39' W 123°27'821520.2
2017-Apr-15 19:27N 49°38' W 124°54'82183.5
2017-Apr-15 19:00N 48°39' W 123°27'8222686.7
2017-Apr-15 19:00N 49°38' W 124°54'82165.2
2017-Apr-15 18:31N 48°39' W 123°27'8219652.2
2017-Apr-15 18:30N 49°38' W 124°54'82165.0
2017-Apr-15 18:00N 48°39' W 123°27'8224557.1
2017-Apr-15 18:00N 49°38' W 124°54'796147.7
2017-Apr-15 18:00N 48°42' W 123°30'3 6.9 140 / 81026.3 8.3 4.5
2017-Apr-15 17:31N 48°39' W 123°27'8219653.2
2017-Apr-15 17:30N 49°38' W 124°54'82165.0
2017-Apr-15 17:00N 48°39' W 123°27'8224557.1
2017-Apr-15 17:00N 49°38' W 124°54'82165.0
2017-Apr-15 16:31N 48°39' W 123°27'8219644.6
2017-Apr-15 16:30N 49°38' W 124°54'82137.2
2017-Apr-15 15:54N 48°39' W 123°27'8222665.7
2017-Apr-15 15:54N 49°38' W 124°54'82206.5
2017-Apr-15 15:30N 48°39' W 123°27'821534.7
2017-Apr-15 15:27N 49°38' W 124°54'82183.2
2017-Apr-15 15:00N 48°39' W 123°27'8224555.8
2017-Apr-15 15:00N 49°38' W 124°54'0 0.0
2017-Apr-15 14:30N 49°38' W 124°54'82164.8
2017-Apr-15 14:00N 48°39' W 123°27'0 0.0
2017-Apr-15 13:30N 48°39' W 123°27'7911789.3
2017-Apr-15 13:30N 49°35' W 124°52'79159.5
2017-Apr-15 13:01N 48°39' W 123°27'732449.1
2017-Apr-15 12:59N 49°30' W 124°48'73156.3
2017-Apr-15 12:31N 48°39' W 123°27'6912374.3
2017-Apr-15 12:30N 49°28' W 124°41'69139.0
2017-Apr-15 12:01N 48°39' W 123°27'6633716.9
2017-Apr-15 12:00N 49°27' W 124°36'624228.6
2017-Apr-15 12:00N 48°42' W 123°30'3 6.9 240 / 61024.8 8.0 3.2
2017-Apr-15 11:31N 48°39' W 123°27'6328312.6
2017-Apr-15 11:30N 49°26' W 124°31'63126.3
2017-Apr-15 11:00N 48°39' W 123°27'6015499.9
2017-Apr-15 11:00N 49°25' W 124°27'60121.6
2017-Apr-15 10:31N 48°39' W 123°27'571167.1
2017-Apr-15 10:28N 49°24' W 124°22'57127.3
2017-Apr-15 10:01N 48°39' W 123°27'55968.4
2017-Apr-15 09:57N 49°23' W 124°16'55122.9
2017-Apr-15 09:30N 48°39' W 123°27'5247006.3
2017-Apr-15 09:30N 49°22' W 124°12'4 7.3
2017-Apr-15 09:00N 49°21' W 124°07'491092.7
2017-Apr-15 08:58N 48°39' W 123°27'0 0.0
2017-Apr-15 08:30N 48°39' W 123°27'4641092.7
2017-Apr-15 08:30N 49°19' W 124°01'4691.5
2017-Apr-15 08:00N 48°39' W 123°27'4210067.3
2017-Apr-15 08:00N 49°17' W 123°56'4 8.0
2017-Apr-15 07:30N 49°15' W 123°51'39808.5
2017-Apr-15 07:27N 48°39' W 123°27'0 0.0
2017-Apr-15 07:01N 48°39' W 123°27'361681.5
2017-Apr-15 06:59N 49°13' W 123°46'3675.1
2017-Apr-15 06:30N 48°39' W 123°27'331836.4
2017-Apr-15 06:29N 49°11' W 123°41'3368.8
2017-Apr-15 06:00N 48°39' W 123°27'307215.3
2017-Apr-15 06:00N 49°09' W 123°36'272260.1
2017-Apr-15 06:00N 48°42' W 123°30'3 6.9 200 / 41023.1 7.7 3.5
2017-Apr-15 05:31N 48°39' W 123°27'2713631.2
2017-Apr-15 05:30N 49°06' W 123°32'2753.2
2017-Apr-15 05:00N 48°39' W 123°27'232303.4
2017-Apr-15 05:00N 49°02' W 123°28'2347.1
2017-Apr-15 04:31N 48°39' W 123°27'2010217.3
2017-Apr-15 04:30N 48°59' W 123°24'2039.9
2017-Apr-15 04:01N 48°39' W 123°27'1710315.2
2017-Apr-15 04:00N 48°56' W 123°20'1734.5
2017-Apr-15 03:30N 48°39' W 123°27'149735.8
2017-Apr-15 03:30N 48°52' W 123°19'1427.1
2017-Apr-15 03:01N 48°39' W 123°27'105189.5
2017-Apr-15 03:00N 48°48' W 123°20'1020.2
2017-Apr-15 02:30N 48°39' W 123°27'54683.2
2017-Apr-15 02:30N 48°44' W 123°24'510.4
2017-Apr-15 02:00N 48°39' W 123°27'33016.1
2017-Apr-15 02:00N 48°41' W 123°30'3 5.0
2017-Apr-15 01:30N 48°39' W 123°27'0 1.0
2017-Apr-15 01:27N 48°39' W 123°27'0 0.1
2017-Apr-15 01:01N 48°39' W 123°27'0 1.0
2017-Apr-15 00:57N 48°39' W 123°27'0 0.1
2017-Apr-15 00:30N 48°39' W 123°27'  
Track history (hours):
 
Tides and Currents Weather Stations Pressure Air Temp Water Temp Dewpoint Dewpoint Depression Visibility Wind Speed Wind Dir Waves Ship Positions

Oceanographic research ship John P. Tully (Canada)

Detailed information on ship capabilities available from University of Delaware's Ocean Information Center.

Last reported at 2017-Apr-25 00:28 UTC. Time now 2017-Apr-25 00:53 UTC.
Position N 48°39' W 123°27'.

Length 68.9 m; beam 14.5 m; draft 4.5 m.

MMSI: 316114000.

Date/timePositionNaut miles runAvg speedWind from/ knotsBaromVisibWave heightAir tempDewpointWater temp
2017-Apr-25 00:28N 48°39' W 123°27'0 0.0
2017-Apr-24 23:58N 48°39' W 123°27'41340.9
2017-Apr-24 23:51N 49°16' W 123°53'41107.7
2017-Apr-24 23:28N 48°39' W 123°27'411618.3
2017-Apr-24 23:27N 49°16' W 123°53'4186.1
2017-Apr-24 22:58N 48°39' W 123°27'0 0.0
2017-Apr-24 22:28N 48°39' W 123°27'1 2.7
2017-Apr-24 22:00N 48°39' W 123°29'57337.3
2017-Apr-24 21:50N 49°31' W 124°06'310.0
2017-Apr-24 21:30N 49°34' W 124°09'6030867.9
2017-Apr-24 21:30N 48°40' W 123°30'0 0.7
2017-Apr-24 21:00N 48°40' W 123°31'66620.1
2017-Apr-24 20:54N 49°39' W 124°15'66167.1
2017-Apr-24 20:30N 48°40' W 123°31'7019311.9
2017-Apr-24 20:30N 49°42' W 124°19'4 8.9
2017-Apr-24 20:00N 49°45' W 124°25'7438198.9
2017-Apr-24 20:00N 48°40' W 123°30'74149.1
2017-Apr-24 19:30N 49°44' W 124°25'7344033.8
2017-Apr-24 19:30N 48°41' W 123°30'74146.9
2017-Apr-24 19:00N 49°45' W 124°25'7553935.2
2017-Apr-24 19:00N 48°39' W 123°30'75151.6
2017-Apr-24 18:30N 49°45' W 124°25'7533738.8
2017-Apr-24 18:30N 48°39' W 123°30'75150.2
2017-Apr-24 18:00N 49°45' W 124°26'761920.2
2017-Apr-24 17:58N 48°39' W 123°27'76165.2
2017-Apr-24 17:30N 49°45' W 124°26'761914.1
2017-Apr-24 17:28N 48°39' W 123°27'76167.2
2017-Apr-24 17:01N 49°45' W 124°27'761738.5
2017-Apr-24 16:58N 48°39' W 123°27'77166.7
2017-Apr-24 16:30N 49°45' W 124°26'77857.2
2017-Apr-24 16:25N 48°39' W 123°27'77187.9
2017-Apr-24 16:00N 49°45' W 124°27'771790.2
2017-Apr-24 15:58N 48°39' W 123°27'76164.8
2017-Apr-24 15:30N 49°45' W 124°27'762065.5
2017-Apr-24 15:28N 48°39' W 123°27'76167.1
2017-Apr-24 15:00N 49°45' W 124°28'761785.8
2017-Apr-24 14:58N 48°39' W 123°27'76167.3
2017-Apr-24 14:30N 49°45' W 124°27'761811.2
2017-Apr-24 14:28N 48°39' W 123°27'7677.7
2017-Apr-24 13:29N 49°46' W 124°23'763034.5
2017-Apr-24 13:28N 48°39' W 123°27'0 0.0
2017-Apr-24 12:55N 48°39' W 123°27'761001.1
2017-Apr-24 12:50N 49°46' W 124°23'76202.9
2017-Apr-24 12:28N 48°39' W 123°27'76997.2
2017-Apr-24 12:23N 49°46' W 124°23'0 0.0
2017-Apr-24 11:59N 49°46' W 124°23'761019.5
2017-Apr-24 11:55N 48°39' W 123°27'76178.3
2017-Apr-24 11:29N 49°46' W 124°23'763140.6
2017-Apr-24 11:28N 48°39' W 123°27'0 0.0
2017-Apr-24 10:58N 48°39' W 123°27'763036.4
2017-Apr-24 10:56N 49°46' W 124°23'0 0.0
2017-Apr-24 10:29N 49°46' W 124°23'763105.2
2017-Apr-24 10:28N 48°39' W 123°27'0 0.0
2017-Apr-24 09:55N 48°39' W 123°27'762970.2
2017-Apr-24 09:53N 49°46' W 124°23'0 0.0
2017-Apr-24 09:29N 49°46' W 124°23'763177.4
2017-Apr-24 09:28N 48°39' W 123°27'76159.5
2017-Apr-24 08:59N 49°46' W 124°23'763140.9
2017-Apr-24 08:58N 48°39' W 123°27'76159.6
2017-Apr-24 08:29N 49°46' W 124°23'763070.1
2017-Apr-24 08:28N 48°39' W 123°27'0 0.0
2017-Apr-24 07:58N 48°39' W 123°27'761004.6
2017-Apr-24 07:53N 49°46' W 124°23'76178.7
2017-Apr-24 07:28N 48°39' W 123°27'763002.6
2017-Apr-24 07:26N 49°46' W 124°23'0 0.0
2017-Apr-24 06:59N 49°46' W 124°23'763105.0
2017-Apr-24 06:58N 48°39' W 123°27'0 0.0
2017-Apr-24 06:28N 48°39' W 123°27'763002.6
2017-Apr-24 06:26N 49°46' W 124°23'76159.9
2017-Apr-24 05:58N 48°39' W 123°27'762970.2
2017-Apr-24 05:56N 49°46' W 124°23'0 0.0
2017-Apr-24 05:29N 49°46' W 124°23'763105.4
2017-Apr-24 05:28N 48°39' W 123°27'0 0.0
2017-Apr-24 04:58N 48°39' W 123°27'76336.5
2017-Apr-24 04:44N 49°46' W 124°23'76276.6
2017-Apr-24 04:28N 48°39' W 123°27'763002.9
2017-Apr-24 04:26N 49°46' W 124°23'76159.9
2017-Apr-24 03:58N 48°39' W 123°27'762938.7
2017-Apr-24 03:56N 49°46' W 124°23'0 0.0
2017-Apr-24 03:29N 49°46' W 124°23'763070.1
2017-Apr-24 03:28N 48°39' W 123°27'76166.3
2017-Apr-24 03:00N 49°45' W 124°26'761777.5
2017-Apr-24 02:58N 48°39' W 123°27'77167.5
2017-Apr-24 02:30N 49°45' W 124°27'771841.9
2017-Apr-24 02:28N 48°39' W 123°27'77168.2
2017-Apr-24 02:00N 49°46' W 124°27'771811.1
2017-Apr-24 01:58N 48°39' W 123°27'77167.5
2017-Apr-24 01:30N 49°45' W 124°28'771842.9
2017-Apr-24 01:28N 48°39' W 123°27'77168.0
2017-Apr-24 01:00N 49°45' W 124°28'771797.5
2017-Apr-24 00:58N 48°39' W 123°27'77168.2
2017-Apr-24 00:30N 49°45' W 124°28'771961.7
2017-Apr-24 00:28N 48°39' W 123°27'77169.4
2017-Apr-24 00:00N 49°46' W 124°28'771835.5
2017-Apr-23 23:58N 48°39' W 123°27'78170.3
2017-Apr-23 23:30N 49°46' W 124°29'781847.6
2017-Apr-23 23:28N 48°39' W 123°27'78170.3
2017-Apr-23 23:00N 49°46' W 124°29'781820.9
2017-Apr-23 22:58N 48°39' W 123°27'78169.6
2017-Apr-23 22:30N 49°45' W 124°29'78835.9
2017-Apr-23 22:25N 48°39' W 123°27'80197.5
2017-Apr-23 22:01N 49°47' W 124°33'801903.7
2017-Apr-23 21:58N 48°39' W 123°27'85184.0
2017-Apr-23 21:30N 49°50' W 124°40'852133.2
2017-Apr-23 21:28N 48°39' W 123°27'89193.7
2017-Apr-23 21:00N 49°51' W 124°48'892072.8
2017-Apr-23 20:58N 48°39' W 123°27'93201.8
2017-Apr-23 20:30N 49°53' W 124°53'932338.0
2017-Apr-23 20:28N 48°39' W 123°27'98212.8
2017-Apr-23 20:00N 49°56' W 125°00'982428.4
2017-Apr-23 19:58N 48°39' W 123°27'101219.7
2017-Apr-23 19:30N 49°58' W 125°03'1012380.8
2017-Apr-23 19:28N 48°39' W 123°27'101220.0
2017-Apr-23 19:00N 49°57' W 125°04'1012352.6
2017-Apr-23 18:58N 48°39' W 123°27'101213.0
2017-Apr-23 18:30N 49°58' W 125°05'1013863.9
2017-Apr-23 18:28N 48°39' W 123°27'101220.4
2017-Apr-23 18:00N 49°58' W 125°05'1012517.3
2017-Apr-23 17:58N 48°39' W 123°27'101219.0
2017-Apr-23 17:30N 49°58' W 125°06'1012786.8
2017-Apr-23 17:28N 48°39' W 123°27'102222.1
2017-Apr-23 17:00N 49°58' W 125°06'1022392.0
2017-Apr-23 16:58N 48°39' W 123°27'102223.9
2017-Apr-23 16:31N 49°59' W 125°05'1022377.3
2017-Apr-23 16:28N 48°39' W 123°27'101220.9
2017-Apr-23 16:00N 49°58' W 125°04'1012361.5
2017-Apr-23 15:58N 48°39' W 123°27'100217.8
2017-Apr-23 15:30N 49°57' W 125°04'1002486.3
2017-Apr-23 15:28N 48°39' W 123°27'100217.9
2017-Apr-23 15:00N 49°57' W 125°03'1002344.6
2017-Apr-23 14:58N 48°39' W 123°27'100103.8
2017-Apr-23 14:00N 49°56' W 125°05'1002769.4
2017-Apr-23 13:58N 48°39' W 123°27'100219.2
2017-Apr-23 13:30N 49°57' W 125°05'1002362.3
2017-Apr-23 13:28N 48°39' W 123°27'101221.2
2017-Apr-23 13:00N 49°57' W 125°06'1011089.6
2017-Apr-23 12:55N 48°39' W 123°27'101246.6
2017-Apr-23 12:30N 49°58' W 125°05'1012510.5
2017-Apr-23 12:28N 48°39' W 123°27'101216.1
2017-Apr-23 12:00N 49°58' W 125°05'1013194.5
2017-Apr-23 11:58N 48°39' W 123°27'101221.4
2017-Apr-23 11:31N 49°58' W 125°04'1012350.1
2017-Apr-23 11:28N 48°39' W 123°27'101220.8
2017-Apr-23 11:00N 49°58' W 125°05'1012482.9
2017-Apr-23 10:58N 48°39' W 123°27'101220.4
2017-Apr-23 10:30N 49°57' W 125°05'1012406.5
2017-Apr-23 10:28N 48°39' W 123°27'101219.9
2017-Apr-23 10:00N 49°57' W 125°05'1012417.4
2017-Apr-23 09:58N 48°39' W 123°27'101220.1
2017-Apr-23 09:30N 49°57' W 125°05'1012368.9
2017-Apr-23 09:28N 48°39' W 123°27'101219.0
2017-Apr-23 09:00N 49°57' W 125°04'1012480.9
2017-Apr-23 08:58N 48°39' W 123°27'101220.0
2017-Apr-23 08:30N 49°57' W 125°05'1012388.4
2017-Apr-23 08:28N 48°39' W 123°27'101222.0
2017-Apr-23 08:01N 49°58' W 125°05'1012369.5
2017-Apr-23 07:58N 48°39' W 123°27'102217.8
2017-Apr-23 07:30N 49°58' W 125°06'1023024.4
2017-Apr-23 07:28N 48°39' W 123°27'101221.9
2017-Apr-23 07:00N 49°58' W 125°06'1012356.6
2017-Apr-23 06:58N 48°39' W 123°27'101214.4
2017-Apr-23 06:30N 49°58' W 125°05'1013759.6
2017-Apr-23 06:28N 48°39' W 123°27'101221.2
2017-Apr-23 06:01N 49°58' W 125°05'1012349.4
2017-Apr-23 05:58N 48°39' W 123°27'101221.1
2017-Apr-23 05:31N 49°58' W 125°05'1012345.5
2017-Apr-23 05:28N 48°39' W 123°27'101220.5
2017-Apr-23 05:01N 49°58' W 125°04'1012356.2
2017-Apr-23 04:58N 48°39' W 123°27'102222.0
2017-Apr-23 04:30N 49°58' W 125°05'1022374.8
2017-Apr-23 04:28N 48°39' W 123°27'104228.3
2017-Apr-23 04:01N 50°01' W 125°06'1042439.1
2017-Apr-23 03:58N 48°39' W 123°27'104227.6
2017-Apr-23 03:31N 50°01' W 125°06'1042432.6
2017-Apr-23 03:28N 48°39' W 123°27'101218.8
2017-Apr-23 03:00N 49°58' W 125°05'1012721.5
2017-Apr-23 02:58N 48°39' W 123°27'102220.1
2017-Apr-23 02:30N 49°58' W 125°07'1022734.3
2017-Apr-23 02:28N 48°39' W 123°27'101219.5
2017-Apr-23 02:00N 49°57' W 125°06'1012543.4
2017-Apr-23 01:58N 48°39' W 123°27'101219.7
2017-Apr-23 01:30N 49°57' W 125°06'1012526.8
2017-Apr-23 01:28N 48°39' W 123°27'101221.1
2017-Apr-23 01:00N 49°58' W 125°05'1012380.4
2017-Apr-23 00:58N 48°39' W 123°27'101211.1
2017-Apr-23 00:29N 49°58' W 125°04'1014924.2
2017-Apr-23 00:28N 48°39' W 123°27'101214.9
2017-Apr-23 00:00N 49°59' W 125°03'1013541.2
2017-Apr-22 23:58N 48°39' W 123°27'102222.9
2017-Apr-22 23:31N 49°59' W 125°05'1022381.9
2017-Apr-22 23:28N 48°39' W 123°27'102220.7
2017-Apr-22 23:00N 49°58' W 125°05'1022538.4
2017-Apr-22 22:58N 48°39' W 123°27'101219.7
2017-Apr-22 22:30N 49°58' W 125°05'1012547.2
2017-Apr-22 22:28N 48°39' W 123°27'101221.4
2017-Apr-22 22:01N 49°58' W 125°05'1012334.2
2017-Apr-22 21:58N 48°39' W 123°27'101218.3
2017-Apr-22 21:30N 49°57' W 125°05'1012712.3
2017-Apr-22 21:28N 48°39' W 123°27'101219.9
2017-Apr-22 21:00N 49°57' W 125°05'1012367.0
2017-Apr-22 20:58N 48°39' W 123°27'100218.7
2017-Apr-22 20:30N 49°56' W 125°05'1002322.4
2017-Apr-22 20:28N 48°39' W 123°27'96206.9
2017-Apr-22 20:00N 49°53' W 125°00'962572.3
2017-Apr-22 19:58N 48°39' W 123°27'90196.4
2017-Apr-22 19:30N 49°50' W 124°54'902240.4
2017-Apr-22 19:28N 48°39' W 123°27'85185.4
2017-Apr-22 19:01N 49°46' W 124°48'851953.5
2017-Apr-22 18:58N 48°39' W 123°27'81175.0
2017-Apr-22 18:30N 49°43' W 124°43'81897.9
2017-Apr-22 18:25N 48°39' W 123°27'79193.8
2017-Apr-22 18:00N 49°42' W 124°42'79880.0
2017-Apr-22 17:55N 48°39' W 123°27'79188.6
2017-Apr-22 17:30N 49°41' W 124°43'792489.3
2017-Apr-22 17:28N 48°39' W 123°27'79172.7
2017-Apr-22 17:00N 49°41' W 124°43'792000.4
2017-Apr-22 16:58N 48°39' W 123°27'80174.2
2017-Apr-22 16:30N 49°42' W 124°44'802003.5
2017-Apr-22 16:28N 48°39' W 123°27'81174.9
2017-Apr-22 16:00N 49°42' W 124°45'812157.0
2017-Apr-22 15:58N 48°39' W 123°27'81176.8
2017-Apr-22 15:30N 49°42' W 124°46'812034.7
2017-Apr-22 15:28N 48°39' W 123°27'82179.3
2017-Apr-22 15:01N 49°43' W 124°46'82877.4
2017-Apr-22 14:55N 48°39' W 123°27'81199.8
2017-Apr-22 14:30N 49°42' W 124°47'811914.1
2017-Apr-22 14:28N 48°39' W 123°27'8184.5
2017-Apr-22 13:30N 49°42' W 124°47'812218.8
2017-Apr-22 13:28N 48°39' W 123°27'81176.4
2017-Apr-22 13:00N 49°42' W 124°45'811886.2
2017-Apr-22 12:58N 48°39' W 123°27'81176.1
2017-Apr-22 12:30N 49°42' W 124°45'811894.6
2017-Apr-22 12:28N 48°39' W 123°27'80174.6
2017-Apr-22 12:00N 49°42' W 124°44'801964.5
2017-Apr-22 11:58N 48°39' W 123°27'80174.3
2017-Apr-22 11:30N 49°42' W 124°43'801903.8
2017-Apr-22 11:28N 48°39' W 123°27'80174.8
2017-Apr-22 11:00N 49°42' W 124°43'802026.0
2017-Apr-22 10:58N 48°39' W 123°27'80175.9
2017-Apr-22 10:30N 49°42' W 124°44'801892.7
2017-Apr-22 10:28N 48°39' W 123°27'80173.6
2017-Apr-22 10:00N 49°42' W 124°44'802159.5
2017-Apr-22 09:58N 48°39' W 123°27'80175.7
2017-Apr-22 09:30N 49°42' W 124°45'801877.9
2017-Apr-22 09:28N 48°39' W 123°27'80175.7
2017-Apr-22 09:00N 49°41' W 124°45'801865.5
2017-Apr-22 08:58N 48°39' W 123°27'80175.8
2017-Apr-22 08:31N 49°41' W 124°46'801876.6
2017-Apr-22 08:28N 48°39' W 123°27'80175.4
2017-Apr-22 08:01N 49°41' W 124°46'801850.9
2017-Apr-22 07:58N 48°39' W 123°27'79170.1
2017-Apr-22 07:30N 49°40' W 124°45'792318.6
2017-Apr-22 07:28N 48°39' W 123°27'80173.1
2017-Apr-22 07:00N 49°41' W 124°45'802004.6
2017-Apr-22 06:58N 48°39' W 123°27'80171.1
2017-Apr-22 06:30N 49°41' W 124°44'802255.9
2017-Apr-22 06:28N 48°39' W 123°27'80174.0
2017-Apr-22 06:00N 49°41' W 124°45'802013.5
2017-Apr-22 05:58N 48°39' W 123°27'80175.0
2017-Apr-22 05:30N 49°41' W 124°45'801911.8
2017-Apr-22 05:28N 48°39' W 123°27'81176.0
2017-Apr-22 05:00N 49°42' W 124°45'81873.5
2017-Apr-22 04:55N 48°39' W 123°27'81198.7
2017-Apr-22 04:31N 49°42' W 124°45'811876.7
2017-Apr-22 04:28N 48°39' W 123°27'81177.4
2017-Apr-22 04:00N 49°43' W 124°45'811897.2
2017-Apr-22 03:58N 48°39' W 123°27'82177.5
2017-Apr-22 03:30N 49°43' W 124°45'822039.8
2017-Apr-22 03:28N 48°39' W 123°27'82178.2
2017-Apr-22 03:00N 49°43' W 124°45'821932.2
2017-Apr-22 02:58N 48°39' W 123°27'81175.5
2017-Apr-22 02:30N 49°42' W 124°44'81897.2
2017-Apr-22 02:25N 48°39' W 123°27'80197.7
2017-Apr-22 02:01N 49°42' W 124°45'801869.7
2017-Apr-22 01:58N 48°39' W 123°27'80172.8
2017-Apr-22 01:30N 49°41' W 124°45'802148.6
2017-Apr-22 01:28N 48°39' W 123°27'80171.0
2017-Apr-22 01:00N 49°41' W 124°45'802311.5
2017-Apr-22 00:58N 48°39' W 123°27'79172.6
2017-Apr-22 00:30N 49°40' W 124°45'791927.0
2017-Apr-22 00:28N 48°39' W 123°27'80169.5
2017-Apr-22 00:00N 49°41' W 124°46'803074.3
2017-Apr-21 23:58N 48°39' W 123°27'80175.6
2017-Apr-21 23:31N 49°41' W 124°45'801865.3
2017-Apr-21 23:28N 48°39' W 123°27'80174.9
2017-Apr-21 23:00N 49°42' W 124°45'801994.8
2017-Apr-21 22:58N 48°39' W 123°27'80170.9
2017-Apr-21 22:30N 49°42' W 124°44'802731.4
2017-Apr-21 22:28N 48°39' W 123°27'81171.9
2017-Apr-21 22:00N 49°42' W 124°43'812542.4
2017-Apr-21 21:58N 48°39' W 123°27'79173.8
2017-Apr-21 21:31N 49°42' W 124°42'791857.3
2017-Apr-21 21:28N 48°39' W 123°27'80173.2
2017-Apr-21 21:00N 49°42' W 124°43'802065.5
2017-Apr-21 20:58N 48°39' W 123°27'80174.8
2017-Apr-21 20:30N 49°42' W 124°44'801885.8
2017-Apr-21 20:28N 48°39' W 123°27'81176.2
2017-Apr-21 20:01N 49°42' W 124°45'811858.4
2017-Apr-21 19:58N 48°39' W 123°27'81175.6
2017-Apr-21 19:30N 49°42' W 124°45'812031.7
2017-Apr-21 19:28N 48°39' W 123°27'81177.2
2017-Apr-21 19:01N 49°42' W 124°46'811894.2
2017-Apr-21 18:58N 48°39' W 123°27'81177.2
2017-Apr-21 18:31N 49°42' W 124°46'811881.3
2017-Apr-21 18:28N 48°39' W 123°27'82178.3
2017-Apr-21 18:00N 49°42' W 124°47'821918.4
2017-Apr-21 17:58N 48°39' W 123°27'81177.7
2017-Apr-21 17:30N 49°42' W 124°46'811927.7
2017-Apr-21 17:28N 48°39' W 123°27'81176.9
2017-Apr-21 17:00N 49°42' W 124°45'811891.1
2017-Apr-21 16:58N 48°39' W 123°27'81176.0
2017-Apr-21 16:30N 49°42' W 124°45'811922.1
2017-Apr-21 16:28N 48°39' W 123°27'80173.2
2017-Apr-21 16:00N 49°42' W 124°44'802152.9
2017-Apr-21 15:58N 48°39' W 123°27'80173.7
2017-Apr-21 15:30N 49°41' W 124°44'801996.4
2017-Apr-21 15:28N 48°39' W 123°27'80174.4
2017-Apr-21 15:00N 49°41' W 124°44'801877.6
2017-Apr-21 14:58N 48°39' W 123°27'79172.7
2017-Apr-21 14:31N 49°41' W 124°43'791834.3
2017-Apr-21 14:28N 48°39' W 123°27'7780.2
2017-Apr-21 13:30N 49°39' W 124°41'771953.4
2017-Apr-21 13:28N 48°39' W 123°27'74159.7
2017-Apr-21 13:00N 49°37' W 124°38'742001.5
2017-Apr-21 12:58N 48°39' W 123°27'71154.1
2017-Apr-21 12:30N 49°35' W 124°35'711772.7
2017-Apr-21 12:28N 48°39' W 123°27'68146.6
2017-Apr-21 12:00N 49°32' W 124°32'681822.2
2017-Apr-21 11:58N 48°39' W 123°27'64131.9
2017-Apr-21 11:29N 49°29' W 124°28'645026.4
2017-Apr-21 11:28N 48°39' W 123°27'61127.2
2017-Apr-21 10:59N 49°27' W 124°24'612633.5
2017-Apr-21 10:58N 48°39' W 123°27'57124.8
2017-Apr-21 10:30N 49°26' W 124°19'571445.2
2017-Apr-21 10:28N 48°39' W 123°27'54116.8
2017-Apr-21 10:00N 49°24' W 124°14'541464.7
2017-Apr-21 09:58N 48°39' W 123°27'51111.1
2017-Apr-21 09:30N 49°22' W 124°09'511195.5
2017-Apr-21 09:28N 48°39' W 123°27'48103.3
2017-Apr-21 09:00N 49°20' W 124°04'481206.4
2017-Apr-21 08:58N 48°39' W 123°27'4496.6
2017-Apr-21 08:30N 49°18' W 123°59'441112.1
2017-Apr-21 08:28N 48°39' W 123°27'4182.9
2017-Apr-21 07:58N 49°16' W 123°54'4111385.0
2017-Apr-21 07:58N 48°39' W 123°27'3883.3
2017-Apr-21 07:30N 49°15' W 123°49'38958.2
2017-Apr-21 07:28N 48°39' W 123°27'3575.2
2017-Apr-21 07:00N 49°13' W 123°44'351227.0
2017-Apr-21 06:58N 48°39' W 123°27'3371.2
2017-Apr-21 06:30N 49°11' W 123°39'33818.7
2017-Apr-21 06:28N 48°39' W 123°27'2959.5
2017-Apr-21 05:58N 49°08' W 123°35'294593.3
2017-Apr-21 05:58N 48°39' W 123°27'2656.4
2017-Apr-21 05:30N 49°05' W 123°32'26648.2
2017-Apr-21 05:28N 48°39' W 123°27'2349.4
2017-Apr-21 05:00N 49°02' W 123°28'23576.9
2017-Apr-21 04:58N 48°39' W 123°27'2043.8
2017-Apr-21 04:30N 48°59' W 123°24'20471.4
2017-Apr-21 04:28N 48°39' W 123°27'1736.7
2017-Apr-21 03:59N 48°56' W 123°21'17767.9
2017-Apr-21 03:58N 48°39' W 123°27'1532.6
2017-Apr-21 03:30N 48°53' W 123°18'15399.0
2017-Apr-21 03:28N 48°39' W 123°27'1123.0
2017-Apr-21 03:00N 48°49' W 123°20'11353.8
2017-Apr-21 02:58N 48°39' W 123°27'613.1
2017-Apr-21 02:30N 48°45' W 123°23'6155.1
2017-Apr-21 02:28N 48°39' W 123°27'3 6.5
2017-Apr-21 02:00N 48°42' W 123°30'376.9
2017-Apr-21 01:58N 48°39' W 123°27'0 0.1
2017-Apr-21 01:30N 48°39' W 123°27'0 1.9
2017-Apr-21 01:28N 48°39' W 123°27'0 0.1
2017-Apr-21 00:59N 48°39' W 123°27'0 0.7
2017-Apr-21 00:55N 48°39' W 123°27'0 0.1
2017-Apr-21 00:29N 48°39' W 123°27'0 2.1
2017-Apr-21 00:28N 48°39' W 123°27'0 0.1
2017-Apr-20 23:59N 48°39' W 123°27'0 2.0
2017-Apr-20 23:58N 48°39' W 123°27'0 0.0
2017-Apr-20 23:28N 48°39' W 123°27'0 2.2
2017-Apr-20 23:26N 48°39' W 123°27'0 0.0
2017-Apr-20 22:59N 48°39' W 123°27'0 2.1
2017-Apr-20 22:58N 48°39' W 123°27'0 0.1
2017-Apr-20 22:30N 48°39' W 123°27'0 2.1
2017-Apr-20 22:28N 48°39' W 123°27'0 0.1
2017-Apr-20 21:59N 48°39' W 123°27'0 2.2
2017-Apr-20 21:58N 48°39' W 123°27'0 0.0
2017-Apr-20 21:28N 48°39' W 123°27'0 2.2
2017-Apr-20 21:26N 48°39' W 123°27'0 0.1
2017-Apr-20 20:58N 48°39' W 123°27'0 2.3
2017-Apr-20 20:57N 48°39' W 123°27'0 0.1
2017-Apr-20 20:28N 48°39' W 123°27'0 2.2
2017-Apr-20 20:27N 48°39' W 123°27'0 0.0
2017-Apr-20 19:59N 48°39' W 123°27'0 2.1
2017-Apr-20 19:58N 48°39' W 123°27'0 0.1
2017-Apr-20 19:29N 48°39' W 123°27'0 2.1
2017-Apr-20 19:28N 48°39' W 123°27'0 0.1
2017-Apr-20 18:59N 48°39' W 123°27'0 2.1
2017-Apr-20 18:58N 48°39' W 123°27'0 0.1
2017-Apr-20 18:29N 48°39' W 123°27'0 2.1
2017-Apr-20 18:28N 48°39' W 123°27'0 0.1
2017-Apr-20 17:59N 48°39' W 123°27'0 2.1
2017-Apr-20 17:58N 48°39' W 123°27'0 0.0
2017-Apr-20 17:28N 48°39' W 123°27'0 2.2
2017-Apr-20 17:27N 48°39' W 123°27'0 0.0
2017-Apr-20 16:59N 48°39' W 123°27'0 2.1
2017-Apr-20 16:58N 48°39' W 123°27'0 0.0
2017-Apr-20 16:28N 48°39' W 123°27'0 2.2
2017-Apr-20 16:26N 48°39' W 123°27'0 0.0
2017-Apr-20 16:00N 48°39' W 123°27'0 2.1
2017-Apr-20 15:58N 48°39' W 123°27'0 0.0
2017-Apr-20 15:30N 48°39' W 123°27'0 3.2
2017-Apr-20 15:29N 48°39' W 123°27'0 0.1
2017-Apr-20 15:00N 48°39' W 123°27'0 3.2
2017-Apr-20 14:59N 48°39' W 123°27'0 0.0
2017-Apr-20 14:29N 48°39' W 123°27'0 0.1
2017-Apr-20 14:00N 48°39' W 123°27'0 0.0
2017-Apr-20 13:31N 48°39' W 123°27'0 3.1
2017-Apr-20 13:29N 48°39' W 123°27'0 0.1
2017-Apr-20 13:01N 48°39' W 123°27'0 3.1
2017-Apr-20 12:59N 48°39' W 123°27'0 0.1
2017-Apr-20 12:31N 48°39' W 123°27'0 3.1
2017-Apr-20 12:29N 48°39' W 123°27'0 0.1
2017-Apr-20 12:01N 48°39' W 123°27'0 3.1
2017-Apr-20 11:59N 48°39' W 123°27'0 0.1
2017-Apr-20 11:31N 48°39' W 123°27'0 3.1
2017-Apr-20 11:29N 48°39' W 123°27'0 0.1
2017-Apr-20 11:01N 48°39' W 123°27'0 0.2
2017-Apr-20 10:47N 48°39' W 123°27'0 0.2
2017-Apr-20 10:31N 48°39' W 123°27'0 3.1
2017-Apr-20 10:29N 48°39' W 123°27'0 0.1
2017-Apr-20 10:00N 48°39' W 123°27'0 3.2
2017-Apr-20 09:59N 48°39' W 123°27'0 0.1
2017-Apr-20 09:30N 48°39' W 123°27'0 3.3
2017-Apr-20 09:30N 48°39' W 123°27'0 0.1
2017-Apr-20 09:00N 48°39' W 123°27'0 3.2
2017-Apr-20 08:59N 48°39' W 123°27'0 0.1
2017-Apr-20 08:30N 48°39' W 123°27'0 3.2
2017-Apr-20 08:29N 48°39' W 123°27'0 0.1
2017-Apr-20 08:00N 48°39' W 123°27'0 3.3
2017-Apr-20 08:00N 48°39' W 123°27'0 0.1
2017-Apr-20 07:31N 48°39' W 123°27'0 0.8
2017-Apr-20 07:26N 48°39' W 123°27'0 0.1
2017-Apr-20 07:01N 48°39' W 123°27'0 3.1
2017-Apr-20 06:59N 48°39' W 123°27'0 0.1
2017-Apr-20 06:31N 48°39' W 123°27'0 3.1
2017-Apr-20 06:29N 48°39' W 123°27'0 0.1
2017-Apr-20 06:00N 48°39' W 123°27'0 3.3
2017-Apr-20 06:00N 48°39' W 123°27'0 0.0
2017-Apr-20 05:30N 48°39' W 123°27'0 1.6
2017-Apr-20 05:28N 48°39' W 123°27'0 0.0
2017-Apr-20 05:00N 48°39' W 123°27'0 3.2
2017-Apr-20 04:59N 48°39' W 123°27'0 0.0
2017-Apr-20 04:29N 48°39' W 123°27'0 2.8
2017-Apr-20 04:27N 48°39' W 123°27'0 0.0
2017-Apr-20 04:01N 48°39' W 123°27'22227.7
2017-Apr-20 04:00N 48°40' W 123°30'2 3.7
2017-Apr-20 03:30N 48°39' W 123°27'58930.1
2017-Apr-20 03:30N 48°44' W 123°25'5 9.9
2017-Apr-20 03:01N 48°39' W 123°27'102563.1
2017-Apr-20 03:00N 48°48' W 123°21'1020.1
2017-Apr-20 02:31N 48°39' W 123°27'131929.0
2017-Apr-20 02:30N 48°52' W 123°19'1327.1
2017-Apr-20 02:00N 48°39' W 123°27'172799.7
2017-Apr-20 02:00N 48°56' W 123°20'1734.6
2017-Apr-20 01:30N 48°39' W 123°27'2124737.3
2017-Apr-20 01:30N 48°60' W 123°25'2141.3
2017-Apr-20 01:01N 48°39' W 123°27'253584.4
2017-Apr-20 01:00N 49°04' W 123°30'2550.4
2017-Apr-20 00:30N 48°39' W 123°27'30800.3
2017-Apr-20 00:28N 49°08' W 123°36'3063.9
2017-Apr-20 00:01N 48°39' W 123°27'338035.7
2017-Apr-20 00:00N 49°11' W 123°42'510.5
2017-Apr-19 23:30N 49°14' W 123°49'37805.9
2017-Apr-19 23:27N 48°39' W 123°27'0 0.0
2017-Apr-19 23:01N 48°39' W 123°27'4110631.7
2017-Apr-19 23:00N 49°16' W 123°56'4183.2
2017-Apr-19 22:30N 48°39' W 123°27'4613685.9
2017-Apr-19 22:30N 49°18' W 124°03'4692.0
2017-Apr-19 22:01N 48°39' W 123°27'5012763.5
2017-Apr-19 22:00N 49°20' W 124°10'5099.9
2017-Apr-19 21:30N 48°39' W 123°27'541480.3
2017-Apr-19 21:28N 49°22' W 124°18'54117.3
2017-Apr-19 21:01N 48°39' W 123°27'59835.6
2017-Apr-19 20:56N 49°24' W 124°26'59137.9
2017-Apr-19 20:31N 48°39' W 123°27'633043.2
2017-Apr-19 20:29N 49°26' W 124°33'63132.2
2017-Apr-19 20:00N 48°39' W 123°27'6811136.3
2017-Apr-19 20:00N 49°28' W 124°40'68138.0
2017-Apr-19 19:31N 48°39' W 123°27'7220053.5
2017-Apr-19 19:30N 49°30' W 124°46'72145.9
2017-Apr-19 19:01N 48°39' W 123°27'7265133.7
2017-Apr-19 19:00N 49°30' W 124°46'72145.1
2017-Apr-19 18:31N 48°39' W 123°27'723063.9
2017-Apr-19 18:29N 49°30' W 124°46'72151.9
2017-Apr-19 18:01N 48°39' W 123°27'7210869.3
2017-Apr-19 18:00N 49°30' W 124°46'72146.9
2017-Apr-19 17:31N 48°39' W 123°27'724004.2
2017-Apr-19 17:29N 49°30' W 124°46'72150.0
2017-Apr-19 17:01N 48°39' W 123°27'722740.8
2017-Apr-19 16:59N 49°30' W 124°46'3 6.0
2017-Apr-19 16:30N 49°28' W 124°42'70477.1
2017-Apr-19 16:22N 48°39' W 123°27'0 0.0
2017-Apr-19 16:00N 48°39' W 123°27'6920813.7
2017-Apr-19 16:00N 49°29' W 124°41'69139.7
2017-Apr-19 15:30N 48°39' W 123°27'71127300.9
2017-Apr-19 15:30N 49°30' W 124°42'71141.6
2017-Apr-19 15:00N 48°39' W 123°27'71800.0
2017-Apr-19 14:55N 49°31' W 124°43'71173.6
2017-Apr-19 14:30N 48°39' W 123°27'733153.5
2017-Apr-19 14:29N 49°32' W 124°44'1 1.1
2017-Apr-19 13:30N 49°31' W 124°44'72719.7
2017-Apr-19 13:24N 48°39' W 123°27'74184.1
2017-Apr-19 13:00N 49°34' W 124°43'741547.7
2017-Apr-19 12:58N 48°39' W 123°27'0 0.0
2017-Apr-19 12:30N 48°39' W 123°27'724973.1
2017-Apr-19 12:30N 49°31' W 124°44'72148.0
2017-Apr-19 12:00N 48°39' W 123°27'7422121.2
2017-Apr-19 12:00N 49°33' W 124°44'74148.5
2017-Apr-19 11:31N 48°39' W 123°27'727889.2
2017-Apr-19 11:30N 49°31' W 124°44'72147.2
2017-Apr-19 11:00N 48°39' W 123°27'7424084.7
2017-Apr-19 11:00N 49°33' W 124°44'1 2.3
2017-Apr-19 10:30N 49°32' W 124°44'731804.5
2017-Apr-19 10:28N 48°39' W 123°27'0 0.0
2017-Apr-19 10:00N 48°39' W 123°27'71127105.3
2017-Apr-19 10:00N 49°30' W 124°42'71141.4
2017-Apr-19 09:30N 48°39' W 123°27'707831.1
2017-Apr-19 09:30N 49°29' W 124°41'70141.7
2017-Apr-19 09:00N 48°39' W 123°27'683374.9
2017-Apr-19 08:59N 49°29' W 124°40'68142.7
2017-Apr-19 08:30N 48°39' W 123°27'697756.8
2017-Apr-19 08:30N 49°29' W 124°40'69140.4
2017-Apr-19 08:00N 48°39' W 123°27'7221712.0
2017-Apr-19 08:00N 49°32' W 124°43'72145.9
2017-Apr-19 07:31N 48°39' W 123°27'7410588.6
2017-Apr-19 07:30N 49°33' W 124°44'74149.0
2017-Apr-19 07:00N 48°39' W 123°27'723559.6
2017-Apr-19 06:59N 49°31' W 124°43'72150.5
2017-Apr-19 06:30N 48°39' W 123°27'7322048.9
2017-Apr-19 06:30N 49°33' W 124°43'73148.0
2017-Apr-19 06:00N 48°39' W 123°27'7311420.4
2017-Apr-19 06:00N 49°32' W 124°44'73148.0
2017-Apr-19 05:31N 48°39' W 123°27'7365521.6
2017-Apr-19 05:30N 49°32' W 124°44'73145.9
2017-Apr-19 05:01N 48°39' W 123°27'7387956.5
2017-Apr-19 05:00N 49°33' W 124°44'73146.8
2017-Apr-19 04:31N 48°39' W 123°27'7251576.8
2017-Apr-19 04:30N 49°31' W 124°43'72143.5
2017-Apr-19 04:00N 48°39' W 123°27'7522383.9
2017-Apr-19 04:00N 49°34' W 124°45'75150.4
2017-Apr-19 03:31N 48°39' W 123°27'7818762.4
2017-Apr-19 03:30N 49°37' W 124°48'78157.7
2017-Apr-19 03:01N 48°39' W 123°27'7618205.5
2017-Apr-19 03:00N 49°35' W 124°46'76152.9
2017-Apr-19 02:30N 48°39' W 123°27'7215339.5
2017-Apr-19 02:30N 49°32' W 124°43'72146.3
2017-Apr-19 02:01N 48°39' W 123°27'6922499.8
2017-Apr-19 02:00N 49°29' W 124°40'69138.2
2017-Apr-19 01:30N 48°39' W 123°27'688752.0
2017-Apr-19 01:30N 49°28' W 124°39'68138.4
2017-Apr-19 01:00N 48°39' W 123°27'6814404.8
2017-Apr-19 01:00N 49°28' W 124°39'0 0.1
2017-Apr-19 00:31N 49°28' W 124°39'6881670.4
2017-Apr-19 00:30N 48°39' W 123°27'0 0.0
2017-Apr-19 00:01N 48°39' W 123°27'727416.7
2017-Apr-19 00:00N 49°29' W 124°46'72147.1
2017-Apr-18 23:31N 48°39' W 123°27'0 0.0
2017-Apr-18 23:00N 48°39' W 123°27'74161.2
2017-Apr-18 22:33N 49°31' W 124°49'741954.6
2017-Apr-18 22:31N 48°39' W 123°27'741195.4
2017-Apr-18 22:27N 49°31' W 124°49'74169.7
2017-Apr-18 22:00N 48°39' W 123°27'74351.4
2017-Apr-18 21:48N 49°31' W 124°49'74258.0
2017-Apr-18 21:30N 48°39' W 123°27'742651.4
2017-Apr-18 21:29N 49°31' W 124°49'74157.8
2017-Apr-18 21:01N 48°39' W 123°27'7589795.9
2017-Apr-18 21:00N 49°31' W 124°49'75149.7
2017-Apr-18 20:30N 48°39' W 123°27'74267897.1
2017-Apr-18 20:30N 49°31' W 124°49'74148.9
2017-Apr-18 20:00N 48°39' W 123°27'75269450.1
2017-Apr-18 20:00N 49°31' W 124°49'75149.8
2017-Apr-18 19:30N 48°39' W 123°27'774568.9
2017-Apr-18 19:29N 49°34' W 124°51'0 0.2
2017-Apr-18 18:59N 49°34' W 124°51'773360.8
2017-Apr-18 18:58N 48°39' W 123°27'0 0.0
2017-Apr-18 18:30N 48°39' W 123°27'775447.8
2017-Apr-18 18:30N 49°33' W 124°51'77158.9
2017-Apr-18 18:00N 48°39' W 123°27'791408.7
2017-Apr-18 17:57N 49°35' W 124°52'79178.0
2017-Apr-18 17:30N 48°39' W 123°27'82294957.8
2017-Apr-18 17:30N 49°38' W 124°54'82164.0
2017-Apr-18 17:00N 48°39' W 123°27'7923796.3
2017-Apr-18 17:00N 49°36' W 124°52'2 3.9
2017-Apr-18 16:30N 49°34' W 124°52'781763.9
2017-Apr-18 16:27N 48°39' W 123°27'0 0.0
2017-Apr-18 16:00N 48°39' W 123°27'7612456.0
2017-Apr-18 16:00N 49°32' W 124°51'76140.0
2017-Apr-18 15:27N 48°39' W 123°27'743739.4
2017-Apr-18 15:26N 49°31' W 124°48'74171.6
2017-Apr-18 15:01N 48°39' W 123°27'7118277.8
2017-Apr-18 15:00N 49°29' W 124°45'71143.1
2017-Apr-18 14:30N 48°39' W 123°27'6920764.4
2017-Apr-18 14:30N 49°28' W 124°42'6969.5
2017-Apr-18 13:31N 48°39' W 123°27'6810203.5
2017-Apr-18 13:30N 49°28' W 124°39'68137.9
2017-Apr-18 13:01N 48°39' W 123°27'6817358.2
2017-Apr-18 13:00N 49°27' W 124°39'68136.1
2017-Apr-18 12:31N 48°39' W 123°27'712254.0
2017-Apr-18 12:29N 49°30' W 124°42'71150.8
2017-Apr-18 12:00N 48°39' W 123°27'7031489.4
2017-Apr-18 12:00N 49°30' W 124°41'674800.8
2017-Apr-18 12:00N 48°42' W 123°30'3 6.9 1011.7 8.3 7.9
2017-Apr-18 11:30N 48°39' W 123°27'6820433.9
2017-Apr-18 11:30N 49°28' W 124°40'68137.2
2017-Apr-18 11:00N 48°39' W 123°27'717336.3
2017-Apr-18 11:00N 49°30' W 124°43'71145.4
2017-Apr-18 10:30N 48°39' W 123°27'697785.0
2017-Apr-18 10:30N 49°29' W 124°41'69141.1
2017-Apr-18 10:01N 48°39' W 123°27'6817592.6
2017-Apr-18 10:00N 49°28' W 124°41'68137.7
2017-Apr-18 09:30N 48°39' W 123°27'6816256.0
2017-Apr-18 09:30N 49°27' W 124°40'68136.6
2017-Apr-18 09:00N 48°39' W 123°27'68122188.8
2017-Apr-18 09:00N 49°27' W 124°40'68136.1
2017-Apr-18 08:31N 48°39' W 123°27'682596.3
2017-Apr-18 08:29N 49°27' W 124°40'68143.1
2017-Apr-18 08:01N 48°39' W 123°27'6911776.9
2017-Apr-18 08:00N 49°28' W 124°41'69138.9
2017-Apr-18 07:30N 48°39' W 123°27'6922496.5
2017-Apr-18 07:30N 49°28' W 124°41'69138.3
2017-Apr-18 07:00N 48°39' W 123°27'6920550.7
2017-Apr-18 07:00N 49°28' W 124°41'69138.1
2017-Apr-18 06:31N 48°39' W 123°27'689074.9
2017-Apr-18 06:30N 49°27' W 124°41'68138.0
2017-Apr-18 06:00N 48°39' W 123°27'3207.9
2017-Apr-18 06:00N 48°42' W 123°30'647729.1 120 / 21011.2 9.7 9.1
2017-Apr-18 05:59N 49°27' W 124°40'0 0.2
2017-Apr-18 05:30N 49°27' W 124°40'68678.0
2017-Apr-18 05:24N 48°39' W 123°27'70168.7
2017-Apr-18 04:59N 49°30' W 124°42'702127.8
2017-Apr-18 04:57N 48°39' W 123°27'0 0.0
2017-Apr-18 04:31N 48°39' W 123°27'714825.5
2017-Apr-18 04:30N 49°30' W 124°42'71146.4
2017-Apr-18 04:01N 48°39' W 123°27'681550.2
2017-Apr-18 03:58N 49°28' W 124°39'68148.0
2017-Apr-18 03:30N 48°39' W 123°27'70125297.7
2017-Apr-18 03:30N 49°28' W 124°42'70139.5
2017-Apr-18 03:01N 48°39' W 123°27'7083776.4
2017-Apr-18 03:00N 49°28' W 124°43'70139.9
2017-Apr-18 02:31N 48°39' W 123°27'6861243.9
2017-Apr-18 02:30N 49°28' W 124°39'68136.4
2017-Apr-18 02:01N 48°39' W 123°27'684538.3
2017-Apr-18 02:00N 49°28' W 124°40'68140.4
2017-Apr-18 01:31N 48°39' W 123°27'68447.4
2017-Apr-18 01:21N 49°28' W 124°40'68195.8
2017-Apr-18 01:01N 48°39' W 123°27'6830647.9
2017-Apr-18 01:00N 49°28' W 124°40'68136.8
2017-Apr-18 00:31N 48°39' W 123°27'6827244.3
2017-Apr-18 00:30N 49°28' W 124°40'0 0.0
2017-Apr-18 00:00N 49°28' W 124°40'654575.7
2017-Apr-18 00:00N 48°42' W 123°30'3100.5 310 / 51010.1 11.5 9.0
2017-Apr-17 23:58N 48°39' W 123°27'0 0.0
2017-Apr-17 23:31N 48°39' W 123°27'68225.3
2017-Apr-17 23:12N 49°28' W 124°40'68344.3
2017-Apr-17 23:01N 48°39' W 123°27'68270.0
2017-Apr-17 22:45N 49°28' W 124°40'68274.9
2017-Apr-17 22:31N 48°39' W 123°27'6830646.0
2017-Apr-17 22:30N 49°28' W 124°40'68136.8
2017-Apr-17 22:01N 48°39' W 123°27'0 0.0
2017-Apr-17 21:31N 48°39' W 123°27'68270.2
2017-Apr-17 21:15N 49°28' W 124°40'68273.8
2017-Apr-17 21:00N 48°39' W 123°27'6840837.1
2017-Apr-17 21:00N 49°28' W 124°40'68136.6
2017-Apr-17 20:30N 48°39' W 123°27'6849004.5
2017-Apr-17 20:30N 49°28' W 124°40'68136.5
2017-Apr-17 20:00N 48°39' W 123°27'0 0.0
2017-Apr-17 19:30N 48°39' W 123°27'681324.6
2017-Apr-17 19:27N 49°28' W 124°40'68151.8
2017-Apr-17 19:00N 48°39' W 123°27'68169.4
2017-Apr-17 18:36N 49°28' W 124°40'68694.4
2017-Apr-17 18:30N 48°39' W 123°27'6835017.4
2017-Apr-17 18:30N 49°28' W 124°40'68136.7
2017-Apr-17 18:00N 48°39' W 123°27'3204.4
2017-Apr-17 18:00N 48°42' W 123°30'65193.1 100 / 61011.2 11.2 6.1
2017-Apr-17 17:39N 49°28' W 124°40'68460.8
2017-Apr-17 17:31N 48°39' W 123°27'681310.8
2017-Apr-17 17:27N 49°28' W 124°40'68151.8
2017-Apr-17 17:00N 48°39' W 123°27'0 0.0
2017-Apr-17 16:30N 48°39' W 123°27'68444.7
2017-Apr-17 16:21N 49°28' W 124°40'1 4.1
2017-Apr-17 16:00N 49°28' W 124°42'691394.7
2017-Apr-17 15:57N 48°39' W 123°27'0 0.0
2017-Apr-17 15:30N 48°39' W 123°27'7083775.1
2017-Apr-17 15:30N 49°29' W 124°43'0 0.3
2017-Apr-17 15:01N 49°28' W 124°43'701428.0
2017-Apr-17 14:58N 48°39' W 123°27'0 0.0
2017-Apr-17 14:31N 48°39' W 123°27'71136.8
2017-Apr-17 13:59N 49°29' W 124°45'71146.7
2017-Apr-17 13:31N 48°39' W 123°27'71127226.4
2017-Apr-17 13:30N 49°29' W 124°44'1 2.3
2017-Apr-17 13:01N 49°29' W 124°43'7041895.1
2017-Apr-17 13:00N 48°39' W 123°27'0 0.0
2017-Apr-17 12:31N 48°39' W 123°27'7264850.1
2017-Apr-17 12:30N 49°29' W 124°46'72144.4
2017-Apr-17 12:01N 48°39' W 123°27'3201.0
2017-Apr-17 12:00N 48°42' W 123°30'697477.9 310 / 41009.0 10.3 5.9
2017-Apr-17 11:59N 49°29' W 124°46'72151.3
2017-Apr-17 11:30N 48°39' W 123°27'723590.4
2017-Apr-17 11:29N 49°29' W 124°46'72149.8
2017-Apr-17 11:01N 48°39' W 123°27'7251501.9
2017-Apr-17 11:00N 49°29' W 124°46'72143.3
2017-Apr-17 10:30N 48°39' W 123°27'71126911.5
2017-Apr-17 10:30N 49°28' W 124°44'71141.2
2017-Apr-17 10:00N 48°39' W 123°27'742954.0
2017-Apr-17 09:59N 49°31' W 124°48'74155.7
2017-Apr-17 09:31N 48°39' W 123°27'73131109.5
2017-Apr-17 09:30N 49°30' W 124°47'73145.8
2017-Apr-17 09:01N 48°39' W 123°27'763332.0
2017-Apr-17 08:59N 49°32' W 124°50'76159.0
2017-Apr-17 08:31N 48°39' W 123°27'777070.5
2017-Apr-17 08:30N 49°33' W 124°51'77156.6
2017-Apr-17 08:01N 48°39' W 123°27'7711593.4
2017-Apr-17 08:00N 49°33' W 124°51'77156.5
2017-Apr-17 07:30N 48°39' W 123°27'746333.5
2017-Apr-17 07:30N 49°31' W 124°48'74151.3
2017-Apr-17 07:00N 48°39' W 123°27'7125507.9
2017-Apr-17 07:00N 49°28' W 124°45'71142.5
2017-Apr-17 06:30N 48°39' W 123°27'7337369.3
2017-Apr-17 06:30N 49°30' W 124°47'73145.9
2017-Apr-17 06:00N 48°39' W 123°27'70253120.1
2017-Apr-17 06:00N 49°28' W 124°45'674233.9
2017-Apr-17 06:00N 48°42' W 123°30'67138.5 310 / 31009.4 12.0 5.3
2017-Apr-17 05:30N 49°29' W 124°44'701440.9
2017-Apr-17 05:27N 48°39' W 123°27'0 0.0
2017-Apr-17 05:01N 48°39' W 123°27'7050752.0
2017-Apr-17 05:00N 49°28' W 124°44'70141.2
2017-Apr-17 04:30N 48°39' W 123°27'71257090.8
2017-Apr-17 04:30N 49°29' W 124°45'71129.9
2017-Apr-17 03:57N 48°39' W 123°27'6911352.4
2017-Apr-17 03:57N 49°28' W 124°42'69156.5
2017-Apr-17 03:31N 48°39' W 123°27'7084499.2
2017-Apr-17 03:30N 49°28' W 124°44'1 1.5
2017-Apr-17 03:00N 49°28' W 124°45'71141.7
2017-Apr-17 02:31N 48°39' W 123°27'7151207.7
2017-Apr-17 02:30N 49°29' W 124°45'1 1.5
2017-Apr-17 02:00N 49°29' W 124°46'72258604.5
2017-Apr-17 02:00N 48°39' W 123°27'0 0.0
2017-Apr-17 01:31N 48°39' W 123°27'72876.9
2017-Apr-17 01:26N 49°29' W 124°46'72171.9
2017-Apr-17 01:01N 48°39' W 123°27'72873.9
2017-Apr-17 00:56N 49°29' W 124°46'72171.8
2017-Apr-17 00:30N 48°39' W 123°27'0 0.0
2017-Apr-17 00:00N 48°39' W 123°27'3207.9
2017-Apr-17 00:00N 48°42' W 123°30'69187.6 250 / 21010.6 14.7 3.8
2017-Apr-16 23:38N 49°29' W 124°46'72607.2
2017-Apr-16 23:30N 48°39' W 123°27'72216.8
2017-Apr-16 23:11N 49°29' W 124°46'72427.6
2017-Apr-16 23:01N 48°39' W 123°27'72544.6
2017-Apr-16 22:53N 49°29' W 124°46'72194.9
2017-Apr-16 22:30N 48°39' W 123°27'72310.9
2017-Apr-16 22:17N 49°29' W 124°46'72267.8
2017-Apr-16 22:01N 48°39' W 123°27'0 0.0
2017-Apr-16 21:25N 48°39' W 123°27'0 0.0
2017-Apr-16 20:57N 48°39' W 123°27'72310.6
2017-Apr-16 20:44N 49°29' W 124°46'72268.1
2017-Apr-16 20:28N 48°39' W 123°27'72544.7
2017-Apr-16 20:20N 49°29' W 124°46'0 0.0
2017-Apr-16 19:59N 49°29' W 124°46'723981.0
2017-Apr-16 19:58N 48°39' W 123°27'0 0.0
2017-Apr-16 19:30N 48°39' W 123°27'722269.9
2017-Apr-16 19:29N 49°29' W 124°46'72153.4
2017-Apr-16 19:00N 48°39' W 123°27'722290.0
2017-Apr-16 18:59N 49°29' W 124°46'72153.6
2017-Apr-16 18:31N 48°39' W 123°27'722250.2
2017-Apr-16 18:29N 49°29' W 124°46'72153.4
2017-Apr-16 18:00N 48°39' W 123°27'3207.9
2017-Apr-16 18:00N 48°42' W 123°30'691051.0 050 / 51016.4 9.9 4.1
2017-Apr-16 17:56N 49°29' W 124°46'72171.9
2017-Apr-16 17:31N 48°39' W 123°27'722250.2
2017-Apr-16 17:29N 49°29' W 124°46'72153.6
2017-Apr-16 17:01N 48°39' W 123°27'72874.2
2017-Apr-16 16:56N 49°29' W 124°46'72171.8
2017-Apr-16 16:30N 48°39' W 123°27'72880.2
2017-Apr-16 16:26N 49°29' W 124°46'0 0.0
2017-Apr-16 15:59N 49°29' W 124°46'723805.4
2017-Apr-16 15:57N 48°39' W 123°27'0 0.0
2017-Apr-16 15:31N 48°39' W 123°27'722875.2
2017-Apr-16 15:29N 49°29' W 124°46'72151.2
2017-Apr-16 15:00N 48°39' W 123°27'735612.7
2017-Apr-16 15:00N 49°31' W 124°47'73150.6
2017-Apr-16 14:31N 48°39' W 123°27'79157.5
2017-Apr-16 14:01N 49°35' W 124°52'79157.2
2017-Apr-16 13:30N 48°39' W 123°27'7917729.0
2017-Apr-16 13:30N 49°35' W 124°52'0 0.3
2017-Apr-16 13:01N 49°35' W 124°52'79142054.0
2017-Apr-16 13:01N 48°39' W 123°27'0 0.0
2017-Apr-16 12:30N 48°39' W 123°27'781431.3
2017-Apr-16 12:27N 49°34' W 124°52'78175.9
2017-Apr-16 12:00N 48°39' W 123°27'7935500.7
2017-Apr-16 12:00N 49°35' W 124°52'765443.2
2017-Apr-16 12:00N 48°42' W 123°30'76156.9 310 / 61020.1 6.0 4.4
2017-Apr-16 11:31N 49°35' W 124°52'7994909.1
2017-Apr-16 11:30N 48°39' W 123°27'0 0.0
2017-Apr-16 11:00N 48°39' W 123°27'763524.6
2017-Apr-16 10:59N 49°32' W 124°51'76159.7
2017-Apr-16 10:30N 48°39' W 123°27'7840120.4
2017-Apr-16 10:30N 49°34' W 124°52'0 0.5
2017-Apr-16 10:01N 49°34' W 124°52'7893328.3
2017-Apr-16 10:00N 48°39' W 123°27'0 0.0
2017-Apr-16 09:30N 48°39' W 123°27'741290.7
2017-Apr-16 09:27N 49°31' W 124°48'74167.7
2017-Apr-16 09:00N 48°39' W 123°27'7316419.2
2017-Apr-16 09:00N 49°30' W 124°47'73147.3
2017-Apr-16 08:30N 48°39' W 123°27'7634378.6
2017-Apr-16 08:30N 49°32' W 124°51'76153.6
2017-Apr-16 08:01N 48°39' W 123°27'79142588.9
2017-Apr-16 08:00N 49°35' W 124°53'3 7.0
2017-Apr-16 07:31N 49°32' W 124°51'7691345.6
2017-Apr-16 07:30N 48°39' W 123°27'0 0.0
2017-Apr-16 07:00N 48°39' W 123°27'721322.9
2017-Apr-16 06:57N 49°30' W 124°47'72162.6
2017-Apr-16 06:30N 48°39' W 123°27'7515056.8
2017-Apr-16 06:30N 49°32' W 124°50'75152.1
2017-Apr-16 06:00N 48°39' W 123°27'7816599.0
2017-Apr-16 06:00N 49°34' W 124°52'756594.1
2017-Apr-16 06:00N 48°42' W 123°30'75154.5 230 / 41022.8 7.3 5.4
2017-Apr-16 05:31N 49°34' W 124°52'78140332.5
2017-Apr-16 05:30N 48°39' W 123°27'0 0.0
2017-Apr-16 05:00N 48°39' W 123°27'741229.3
2017-Apr-16 04:57N 49°31' W 124°48'74168.7
2017-Apr-16 04:31N 48°39' W 123°27'7142683.3
2017-Apr-16 04:30N 49°28' W 124°46'71142.8
2017-Apr-16 04:01N 48°39' W 123°27'746822.9
2017-Apr-16 04:00N 49°31' W 124°48'74150.9
2017-Apr-16 03:30N 48°39' W 123°27'772847.3
2017-Apr-16 03:29N 49°33' W 124°51'3 6.2
2017-Apr-16 03:01N 49°35' W 124°53'79142646.3
2017-Apr-16 03:00N 48°39' W 123°27'0 0.0
2017-Apr-16 02:31N 48°39' W 123°27'792321.0
2017-Apr-16 02:28N 49°35' W 124°52'79168.6
2017-Apr-16 02:00N 48°39' W 123°27'82269.8
2017-Apr-16 01:42N 49°38' W 124°54'82417.2
2017-Apr-16 01:30N 48°39' W 123°27'82231.9
2017-Apr-16 01:09N 49°38' W 124°54'82560.7
2017-Apr-16 01:01N 48°39' W 123°27'0 0.0
2017-Apr-16 00:30N 48°39' W 123°27'0 0.0
2017-Apr-16 00:00N 48°39' W 123°27'3204.4
2017-Apr-16 00:00N 48°42' W 123°30'79901.3 130 / 81024.4 10.9 2.5
2017-Apr-15 23:54N 49°38' W 124°54'82206.5
2017-Apr-15 23:30N 48°39' W 123°27'8221062.9
2017-Apr-15 23:30N 49°38' W 124°54'82165.1
2017-Apr-15 23:00N 48°39' W 123°27'82788.5
2017-Apr-15 22:54N 49°38' W 124°54'82206.8
2017-Apr-15 22:30N 48°39' W 123°27'82533.3
2017-Apr-15 22:21N 49°38' W 124°54'82236.9
2017-Apr-15 22:01N 48°39' W 123°27'821520.0
2017-Apr-15 21:57N 49°38' W 124°54'82183.6
2017-Apr-15 21:31N 48°39' W 123°27'8221062.9
2017-Apr-15 21:30N 49°38' W 124°54'82165.1
2017-Apr-15 21:01N 48°39' W 123°27'8221064.0
2017-Apr-15 21:00N 49°38' W 124°54'82164.9
2017-Apr-15 20:30N 48°39' W 123°27'8224574.7
2017-Apr-15 20:30N 49°38' W 124°54'82165.1
2017-Apr-15 20:01N 48°39' W 123°27'82532.3
2017-Apr-15 19:51N 49°38' W 124°54'82236.5
2017-Apr-15 19:30N 48°39' W 123°27'821520.2
2017-Apr-15 19:27N 49°38' W 124°54'82183.5
2017-Apr-15 19:00N 48°39' W 123°27'8222686.7
2017-Apr-15 19:00N 49°38' W 124°54'82165.2
2017-Apr-15 18:31N 48°39' W 123°27'8219652.2
2017-Apr-15 18:30N 49°38' W 124°54'82165.0
2017-Apr-15 18:00N 48°39' W 123°27'8224557.1
2017-Apr-15 18:00N 49°38' W 124°54'796147.7
2017-Apr-15 18:00N 48°42' W 123°30'3 6.9 140 / 81026.3 8.3 4.5
2017-Apr-15 17:31N 48°39' W 123°27'8219653.2
2017-Apr-15 17:30N 49°38' W 124°54'82165.0
2017-Apr-15 17:00N 48°39' W 123°27'8224557.1
2017-Apr-15 17:00N 49°38' W 124°54'82165.0
2017-Apr-15 16:31N 48°39' W 123°27'8219644.6
2017-Apr-15 16:30N 49°38' W 124°54'82137.2
2017-Apr-15 15:54N 48°39' W 123°27'8222665.7
2017-Apr-15 15:54N 49°38' W 124°54'82206.5
2017-Apr-15 15:30N 48°39' W 123°27'821534.7
2017-Apr-15 15:27N 49°38' W 124°54'82183.2
2017-Apr-15 15:00N 48°39' W 123°27'8224555.8
2017-Apr-15 15:00N 49°38' W 124°54'0 0.0
2017-Apr-15 14:30N 49°38' W 124°54'82164.8
2017-Apr-15 14:00N 48°39' W 123°27'0 0.0
2017-Apr-15 13:30N 48°39' W 123°27'7911789.3
2017-Apr-15 13:30N 49°35' W 124°52'79159.5
2017-Apr-15 13:01N 48°39' W 123°27'732449.1
2017-Apr-15 12:59N 49°30' W 124°48'73156.3
2017-Apr-15 12:31N 48°39' W 123°27'6912374.3
2017-Apr-15 12:30N 49°28' W 124°41'69139.0
2017-Apr-15 12:01N 48°39' W 123°27'6633716.9
2017-Apr-15 12:00N 49°27' W 124°36'624228.6
2017-Apr-15 12:00N 48°42' W 123°30'3 6.9 240 / 61024.8 8.0 3.2
2017-Apr-15 11:31N 48°39' W 123°27'6328312.6
2017-Apr-15 11:30N 49°26' W 124°31'63126.3
2017-Apr-15 11:00N 48°39' W 123°27'6015499.9
2017-Apr-15 11:00N 49°25' W 124°27'60121.6
2017-Apr-15 10:31N 48°39' W 123°27'571167.1
2017-Apr-15 10:28N 49°24' W 124°22'57127.3
2017-Apr-15 10:01N 48°39' W 123°27'55968.4
2017-Apr-15 09:57N 49°23' W 124°16'55122.9
2017-Apr-15 09:30N 48°39' W 123°27'5247006.3
2017-Apr-15 09:30N 49°22' W 124°12'4 7.3
2017-Apr-15 09:00N 49°21' W 124°07'491092.7
2017-Apr-15 08:58N 48°39' W 123°27'0 0.0
2017-Apr-15 08:30N 48°39' W 123°27'4641092.7
2017-Apr-15 08:30N 49°19' W 124°01'4691.5
2017-Apr-15 08:00N 48°39' W 123°27'4210067.3
2017-Apr-15 08:00N 49°17' W 123°56'4 8.0
2017-Apr-15 07:30N 49°15' W 123°51'39808.5
2017-Apr-15 07:27N 48°39' W 123°27'0 0.0
2017-Apr-15 07:01N 48°39' W 123°27'361681.5
2017-Apr-15 06:59N 49°13' W 123°46'3675.1
2017-Apr-15 06:30N 48°39' W 123°27'331836.4
2017-Apr-15 06:29N 49°11' W 123°41'3368.8
2017-Apr-15 06:00N 48°39' W 123°27'307215.3
2017-Apr-15 06:00N 49°09' W 123°36'272260.1
2017-Apr-15 06:00N 48°42' W 123°30'3 6.9 200 / 41023.1 7.7 3.5
2017-Apr-15 05:31N 48°39' W 123°27'2713631.2
2017-Apr-15 05:30N 49°06' W 123°32'2753.2
2017-Apr-15 05:00N 48°39' W 123°27'232303.4
2017-Apr-15 05:00N 49°02' W 123°28'2347.1
2017-Apr-15 04:31N 48°39' W 123°27'2010217.3
2017-Apr-15 04:30N 48°59' W 123°24'2039.9
2017-Apr-15 04:01N 48°39' W 123°27'1710315.2
2017-Apr-15 04:00N 48°56' W 123°20'1734.5
2017-Apr-15 03:30N 48°39' W 123°27'149735.8
2017-Apr-15 03:30N 48°52' W 123°19'1427.1
2017-Apr-15 03:01N 48°39' W 123°27'105189.5
2017-Apr-15 03:00N 48°48' W 123°20'1020.2
2017-Apr-15 02:30N 48°39' W 123°27'54683.2
2017-Apr-15 02:30N 48°44' W 123°24'510.4
2017-Apr-15 02:00N 48°39' W 123°27'33016.1
2017-Apr-15 02:00N 48°41' W 123°30'3 5.0
2017-Apr-15 01:30N 48°39' W 123°27'0 1.0
2017-Apr-15 01:27N 48°39' W 123°27'0 0.1
2017-Apr-15 01:01N 48°39' W 123°27'0 1.0
2017-Apr-15 00:57N 48°39' W 123°27'0 0.1
2017-Apr-15 00:30N 48°39' W 123°27'  

Dump ship's entire track history